<?xml version="1.0" encoding="UTF-8" standalone="no" ?>
<gpx xmlns="http://www.topografix.com/GPX/1/1" xmlns:xsi="http://www.w3.org/2001/XMLSchema-instance" xsi:schemaLocation="http://www.topografix.com/GPX/1/1 http://www.topografix.com/GPX/1/1/gpx.xsd" version="1.1" creator="VisuGPX - https://www.visugpx.com">
  <metadata>
    <name>83 - L - Monfort sur Argens</name>
    <desc><![CDATA[83 - L - Monfort sur Argens Font Petite, Bas Robernier 4/11/2024
 ]]></desc>
  </metadata>
  <trk>
    <name><![CDATA[Montfort sur Argens 2024-11-04-01]]></name>
    <trkseg>
      <trkpt lat="43.47218" lon="6.12344">
        <ele>148.5</ele>
        <time>2024-11-04T08:14:24Z</time>
      </trkpt>
      <trkpt lat="43.47219" lon="6.12343">
        <ele>148.5</ele>
        <time>2024-11-04T08:14:25Z</time>
      </trkpt>
      <trkpt lat="43.47225" lon="6.12333">
        <ele>148.7</ele>
        <time>2024-11-04T08:15:04Z</time>
      </trkpt>
      <trkpt lat="43.47229" lon="6.12321">
        <ele>149.2</ele>
        <time>2024-11-04T08:19:17Z</time>
      </trkpt>
      <trkpt lat="43.47237" lon="6.12314">
        <ele>150.2</ele>
        <time>2024-11-04T08:19:38Z</time>
      </trkpt>
      <trkpt lat="43.47241" lon="6.12303">
        <ele>150</ele>
        <time>2024-11-04T08:19:57Z</time>
      </trkpt>
      <trkpt lat="43.47242" lon="6.1229">
        <ele>150.6</ele>
        <time>2024-11-04T08:20:13Z</time>
      </trkpt>
      <trkpt lat="43.47243" lon="6.12277">
        <ele>150.6</ele>
        <time>2024-11-04T08:20:24Z</time>
      </trkpt>
      <trkpt lat="43.47245" lon="6.12265">
        <ele>150.5</ele>
        <time>2024-11-04T08:20:35Z</time>
      </trkpt>
      <trkpt lat="43.47249" lon="6.12252">
        <ele>150.9</ele>
        <time>2024-11-04T08:20:46Z</time>
      </trkpt>
      <trkpt lat="43.47255" lon="6.12242">
        <ele>150.9</ele>
        <time>2024-11-04T08:20:57Z</time>
      </trkpt>
      <trkpt lat="43.47263" lon="6.12236">
        <ele>151.4</ele>
        <time>2024-11-04T08:21:24Z</time>
      </trkpt>
      <trkpt lat="43.47271" lon="6.1223">
        <ele>151.5</ele>
        <time>2024-11-04T08:21:32Z</time>
      </trkpt>
      <trkpt lat="43.4728" lon="6.12228">
        <ele>151.6</ele>
        <time>2024-11-04T08:21:45Z</time>
      </trkpt>
      <trkpt lat="43.47289" lon="6.12223">
        <ele>152</ele>
        <time>2024-11-04T08:22:02Z</time>
      </trkpt>
      <trkpt lat="43.47299" lon="6.1222">
        <ele>152.4</ele>
        <time>2024-11-04T08:22:15Z</time>
      </trkpt>
      <trkpt lat="43.47308" lon="6.12218">
        <ele>152.5</ele>
        <time>2024-11-04T08:22:29Z</time>
      </trkpt>
      <trkpt lat="43.47317" lon="6.12217">
        <ele>152.8</ele>
        <time>2024-11-04T08:22:41Z</time>
      </trkpt>
      <trkpt lat="43.47327" lon="6.12217">
        <ele>153</ele>
        <time>2024-11-04T08:22:54Z</time>
      </trkpt>
      <trkpt lat="43.47335" lon="6.12209">
        <ele>153.2</ele>
        <time>2024-11-04T08:23:07Z</time>
      </trkpt>
      <trkpt lat="43.47344" lon="6.12207">
        <ele>153.5</ele>
        <time>2024-11-04T08:23:20Z</time>
      </trkpt>
      <trkpt lat="43.47352" lon="6.12212">
        <ele>154</ele>
        <time>2024-11-04T08:23:43Z</time>
      </trkpt>
      <trkpt lat="43.47362" lon="6.12209">
        <ele>154.1</ele>
        <time>2024-11-04T08:23:56Z</time>
      </trkpt>
      <trkpt lat="43.4737" lon="6.12204">
        <ele>154</ele>
        <time>2024-11-04T08:24:06Z</time>
      </trkpt>
      <trkpt lat="43.4738" lon="6.122">
        <ele>154.3</ele>
        <time>2024-11-04T08:24:17Z</time>
      </trkpt>
      <trkpt lat="43.47389" lon="6.12196">
        <ele>154.7</ele>
        <time>2024-11-04T08:24:31Z</time>
      </trkpt>
      <trkpt lat="43.47397" lon="6.1219">
        <ele>154.9</ele>
        <time>2024-11-04T08:24:44Z</time>
      </trkpt>
      <trkpt lat="43.47406" lon="6.1219">
        <ele>155.2</ele>
        <time>2024-11-04T08:25:02Z</time>
      </trkpt>
      <trkpt lat="43.47415" lon="6.12189">
        <ele>156</ele>
        <time>2024-11-04T08:25:33Z</time>
      </trkpt>
      <trkpt lat="43.47423" lon="6.12182">
        <ele>156.4</ele>
        <time>2024-11-04T08:25:51Z</time>
      </trkpt>
      <trkpt lat="43.47428" lon="6.12172">
        <ele>157.2</ele>
        <time>2024-11-04T08:26:05Z</time>
      </trkpt>
      <trkpt lat="43.47435" lon="6.12164">
        <ele>158.3</ele>
        <time>2024-11-04T08:26:18Z</time>
      </trkpt>
      <trkpt lat="43.47425" lon="6.12163">
        <ele>161.4</ele>
        <time>2024-11-04T08:26:44Z</time>
      </trkpt>
      <trkpt lat="43.47417" lon="6.12161">
        <ele>163.5</ele>
        <time>2024-11-04T08:27:05Z</time>
      </trkpt>
      <trkpt lat="43.47415" lon="6.12148">
        <ele>168.2</ele>
        <time>2024-11-04T08:29:38Z</time>
      </trkpt>
      <trkpt lat="43.47423" lon="6.1214">
        <ele>168.1</ele>
        <time>2024-11-04T08:31:08Z</time>
      </trkpt>
      <trkpt lat="43.47432" lon="6.12142">
        <ele>169.7</ele>
        <time>2024-11-04T08:31:24Z</time>
      </trkpt>
      <trkpt lat="43.47437" lon="6.12129">
        <ele>172.7</ele>
        <time>2024-11-04T08:31:39Z</time>
      </trkpt>
      <trkpt lat="43.4743" lon="6.12138">
        <ele>170.4</ele>
        <time>2024-11-04T08:32:15Z</time>
      </trkpt>
      <trkpt lat="43.47439" lon="6.12141">
        <ele>171.1</ele>
        <time>2024-11-04T08:33:29Z</time>
      </trkpt>
      <trkpt lat="43.47444" lon="6.1213">
        <ele>173.8</ele>
        <time>2024-11-04T08:33:47Z</time>
      </trkpt>
      <trkpt lat="43.47444" lon="6.12116">
        <ele>175.1</ele>
        <time>2024-11-04T08:33:59Z</time>
      </trkpt>
      <trkpt lat="43.47438" lon="6.12107">
        <ele>176.8</ele>
        <time>2024-11-04T08:34:37Z</time>
      </trkpt>
      <trkpt lat="43.47443" lon="6.12096">
        <ele>176.8</ele>
        <time>2024-11-04T08:35:52Z</time>
      </trkpt>
      <trkpt lat="43.47438" lon="6.12085">
        <ele>177.4</ele>
        <time>2024-11-04T08:36:11Z</time>
      </trkpt>
      <trkpt lat="43.47436" lon="6.12072">
        <ele>177.4</ele>
        <time>2024-11-04T08:36:28Z</time>
      </trkpt>
      <trkpt lat="43.47436" lon="6.12085">
        <ele>177.5</ele>
        <time>2024-11-04T08:38:44Z</time>
      </trkpt>
      <trkpt lat="43.47439" lon="6.12098">
        <ele>177.4</ele>
        <time>2024-11-04T08:39:25Z</time>
      </trkpt>
      <trkpt lat="43.47441" lon="6.1211">
        <ele>177.4</ele>
        <time>2024-11-04T08:40:39Z</time>
      </trkpt>
      <trkpt lat="43.47437" lon="6.12123">
        <ele>177</ele>
        <time>2024-11-04T08:43:09Z</time>
      </trkpt>
      <trkpt lat="43.47446" lon="6.12121">
        <ele>175.4</ele>
        <time>2024-11-04T08:43:44Z</time>
      </trkpt>
      <trkpt lat="43.47456" lon="6.12116">
        <ele>175.2</ele>
        <time>2024-11-04T08:43:54Z</time>
      </trkpt>
      <trkpt lat="43.47463" lon="6.12109">
        <ele>173.9</ele>
        <time>2024-11-04T08:44:10Z</time>
      </trkpt>
      <trkpt lat="43.4747" lon="6.12101">
        <ele>173</ele>
        <time>2024-11-04T08:44:29Z</time>
      </trkpt>
      <trkpt lat="43.4748" lon="6.121">
        <ele>171.1</ele>
        <time>2024-11-04T08:45:07Z</time>
      </trkpt>
      <trkpt lat="43.47476" lon="6.12111">
        <ele>168.7</ele>
        <time>2024-11-04T08:45:26Z</time>
      </trkpt>
      <trkpt lat="43.47476" lon="6.12124">
        <ele>165.8</ele>
        <time>2024-11-04T08:46:03Z</time>
      </trkpt>
      <trkpt lat="43.47481" lon="6.12135">
        <ele>162.1</ele>
        <time>2024-11-04T08:46:38Z</time>
      </trkpt>
      <trkpt lat="43.4749" lon="6.1213">
        <ele>158.4</ele>
        <time>2024-11-04T08:48:24Z</time>
      </trkpt>
      <trkpt lat="43.47498" lon="6.12123">
        <ele>159.3</ele>
        <time>2024-11-04T08:48:42Z</time>
      </trkpt>
      <trkpt lat="43.47507" lon="6.1212">
        <ele>159.8</ele>
        <time>2024-11-04T08:49:03Z</time>
      </trkpt>
      <trkpt lat="43.47516" lon="6.12124">
        <ele>160.5</ele>
        <time>2024-11-04T08:49:15Z</time>
      </trkpt>
      <trkpt lat="43.47524" lon="6.1213">
        <ele>161</ele>
        <time>2024-11-04T08:49:26Z</time>
      </trkpt>
      <trkpt lat="43.47532" lon="6.12139">
        <ele>161.7</ele>
        <time>2024-11-04T08:49:38Z</time>
      </trkpt>
      <trkpt lat="43.47538" lon="6.12148">
        <ele>162.6</ele>
        <time>2024-11-04T08:49:49Z</time>
      </trkpt>
      <trkpt lat="43.47547" lon="6.12154">
        <ele>163.8</ele>
        <time>2024-11-04T08:50:00Z</time>
      </trkpt>
      <trkpt lat="43.47556" lon="6.12152">
        <ele>165.1</ele>
        <time>2024-11-04T08:50:14Z</time>
      </trkpt>
      <trkpt lat="43.47565" lon="6.12145">
        <ele>166.4</ele>
        <time>2024-11-04T08:50:25Z</time>
      </trkpt>
      <trkpt lat="43.47569" lon="6.12134">
        <ele>166.8</ele>
        <time>2024-11-04T08:50:38Z</time>
      </trkpt>
      <trkpt lat="43.4757" lon="6.12121">
        <ele>168</ele>
        <time>2024-11-04T08:50:49Z</time>
      </trkpt>
      <trkpt lat="43.47572" lon="6.12109">
        <ele>168.6</ele>
        <time>2024-11-04T08:51:00Z</time>
      </trkpt>
      <trkpt lat="43.47574" lon="6.12096">
        <ele>169</ele>
        <time>2024-11-04T08:51:14Z</time>
      </trkpt>
      <trkpt lat="43.47577" lon="6.12084">
        <ele>170.2</ele>
        <time>2024-11-04T08:51:26Z</time>
      </trkpt>
      <trkpt lat="43.47579" lon="6.12071">
        <ele>171</ele>
        <time>2024-11-04T08:51:58Z</time>
      </trkpt>
      <trkpt lat="43.47584" lon="6.12061">
        <ele>170.3</ele>
        <time>2024-11-04T08:52:18Z</time>
      </trkpt>
      <trkpt lat="43.47589" lon="6.1205">
        <ele>171.2</ele>
        <time>2024-11-04T08:52:27Z</time>
      </trkpt>
      <trkpt lat="43.47596" lon="6.12041">
        <ele>171.4</ele>
        <time>2024-11-04T08:52:36Z</time>
      </trkpt>
      <trkpt lat="43.47604" lon="6.12034">
        <ele>171.8</ele>
        <time>2024-11-04T08:52:50Z</time>
      </trkpt>
      <trkpt lat="43.47613" lon="6.12031">
        <ele>172.2</ele>
        <time>2024-11-04T08:53:00Z</time>
      </trkpt>
      <trkpt lat="43.47622" lon="6.12027">
        <ele>173.1</ele>
        <time>2024-11-04T08:53:11Z</time>
      </trkpt>
      <trkpt lat="43.4763" lon="6.12021">
        <ele>173.5</ele>
        <time>2024-11-04T08:53:23Z</time>
      </trkpt>
      <trkpt lat="43.47638" lon="6.12014">
        <ele>174.1</ele>
        <time>2024-11-04T08:53:45Z</time>
      </trkpt>
      <trkpt lat="43.47643" lon="6.12003">
        <ele>174.5</ele>
        <time>2024-11-04T08:53:56Z</time>
      </trkpt>
      <trkpt lat="43.47638" lon="6.12014">
        <ele>174.2</ele>
        <time>2024-11-04T08:54:43Z</time>
      </trkpt>
      <trkpt lat="43.47632" lon="6.12023">
        <ele>173.7</ele>
        <time>2024-11-04T08:54:54Z</time>
      </trkpt>
      <trkpt lat="43.47629" lon="6.12036">
        <ele>173.6</ele>
        <time>2024-11-04T08:55:35Z</time>
      </trkpt>
      <trkpt lat="43.47638" lon="6.12036">
        <ele>175.6</ele>
        <time>2024-11-04T08:56:08Z</time>
      </trkpt>
      <trkpt lat="43.47647" lon="6.12034">
        <ele>177.5</ele>
        <time>2024-11-04T08:56:23Z</time>
      </trkpt>
      <trkpt lat="43.47656" lon="6.12032">
        <ele>179.8</ele>
        <time>2024-11-04T08:56:38Z</time>
      </trkpt>
      <trkpt lat="43.47665" lon="6.12028">
        <ele>182.7</ele>
        <time>2024-11-04T08:56:58Z</time>
      </trkpt>
      <trkpt lat="43.47674" lon="6.12025">
        <ele>186.3</ele>
        <time>2024-11-04T08:57:22Z</time>
      </trkpt>
      <trkpt lat="43.47683" lon="6.12025">
        <ele>188.8</ele>
        <time>2024-11-04T08:58:34Z</time>
      </trkpt>
      <trkpt lat="43.47692" lon="6.12023">
        <ele>190.9</ele>
        <time>2024-11-04T08:58:55Z</time>
      </trkpt>
      <trkpt lat="43.47702" lon="6.12022">
        <ele>193</ele>
        <time>2024-11-04T08:59:48Z</time>
      </trkpt>
      <trkpt lat="43.47711" lon="6.12019">
        <ele>195.6</ele>
        <time>2024-11-04T09:00:25Z</time>
      </trkpt>
      <trkpt lat="43.4772" lon="6.12019">
        <ele>197.6</ele>
        <time>2024-11-04T09:00:56Z</time>
      </trkpt>
      <trkpt lat="43.47728" lon="6.1201">
        <ele>198</ele>
        <time>2024-11-04T09:01:12Z</time>
      </trkpt>
      <trkpt lat="43.47737" lon="6.12009">
        <ele>198.7</ele>
        <time>2024-11-04T09:01:25Z</time>
      </trkpt>
      <trkpt lat="43.47746" lon="6.12008">
        <ele>199.6</ele>
        <time>2024-11-04T09:01:45Z</time>
      </trkpt>
      <trkpt lat="43.47756" lon="6.12007">
        <ele>201.3</ele>
        <time>2024-11-04T09:02:03Z</time>
      </trkpt>
      <trkpt lat="43.47765" lon="6.12006">
        <ele>202.6</ele>
        <time>2024-11-04T09:02:22Z</time>
      </trkpt>
      <trkpt lat="43.47774" lon="6.12009">
        <ele>204.9</ele>
        <time>2024-11-04T09:02:44Z</time>
      </trkpt>
      <trkpt lat="43.47783" lon="6.12008">
        <ele>206.5</ele>
        <time>2024-11-04T09:04:21Z</time>
      </trkpt>
      <trkpt lat="43.47792" lon="6.12005">
        <ele>208.1</ele>
        <time>2024-11-04T09:04:48Z</time>
      </trkpt>
      <trkpt lat="43.47801" lon="6.11998">
        <ele>209.9</ele>
        <time>2024-11-04T09:05:10Z</time>
      </trkpt>
      <trkpt lat="43.47809" lon="6.11992">
        <ele>212.3</ele>
        <time>2024-11-04T09:05:36Z</time>
      </trkpt>
      <trkpt lat="43.47818" lon="6.11987">
        <ele>214.7</ele>
        <time>2024-11-04T09:05:57Z</time>
      </trkpt>
      <trkpt lat="43.47826" lon="6.11981">
        <ele>217.2</ele>
        <time>2024-11-04T09:06:21Z</time>
      </trkpt>
      <trkpt lat="43.47834" lon="6.11975">
        <ele>219</ele>
        <time>2024-11-04T09:06:45Z</time>
      </trkpt>
      <trkpt lat="43.47842" lon="6.11969">
        <ele>220.9</ele>
        <time>2024-11-04T09:07:05Z</time>
      </trkpt>
      <trkpt lat="43.47849" lon="6.1196">
        <ele>222.5</ele>
        <time>2024-11-04T09:07:19Z</time>
      </trkpt>
      <trkpt lat="43.47854" lon="6.1195">
        <ele>224</ele>
        <time>2024-11-04T09:07:39Z</time>
      </trkpt>
      <trkpt lat="43.47863" lon="6.11944">
        <ele>225.2</ele>
        <time>2024-11-04T09:07:52Z</time>
      </trkpt>
      <trkpt lat="43.4787" lon="6.11937">
        <ele>226.3</ele>
        <time>2024-11-04T09:08:10Z</time>
      </trkpt>
      <trkpt lat="43.47879" lon="6.11931">
        <ele>228</ele>
        <time>2024-11-04T09:08:34Z</time>
      </trkpt>
      <trkpt lat="43.47887" lon="6.11926">
        <ele>229.3</ele>
        <time>2024-11-04T09:08:54Z</time>
      </trkpt>
      <trkpt lat="43.47894" lon="6.11917">
        <ele>230.5</ele>
        <time>2024-11-04T09:12:11Z</time>
      </trkpt>
      <trkpt lat="43.47904" lon="6.11918">
        <ele>231</ele>
        <time>2024-11-04T09:12:24Z</time>
      </trkpt>
      <trkpt lat="43.47913" lon="6.11917">
        <ele>231.8</ele>
        <time>2024-11-04T09:12:36Z</time>
      </trkpt>
      <trkpt lat="43.47922" lon="6.11913">
        <ele>232.7</ele>
        <time>2024-11-04T09:12:48Z</time>
      </trkpt>
      <trkpt lat="43.47931" lon="6.11912">
        <ele>233.4</ele>
        <time>2024-11-04T09:13:00Z</time>
      </trkpt>
      <trkpt lat="43.47941" lon="6.11911">
        <ele>234.6</ele>
        <time>2024-11-04T09:13:14Z</time>
      </trkpt>
      <trkpt lat="43.4795" lon="6.11912">
        <ele>236</ele>
        <time>2024-11-04T09:13:27Z</time>
      </trkpt>
      <trkpt lat="43.4796" lon="6.11913">
        <ele>237.7</ele>
        <time>2024-11-04T09:13:44Z</time>
      </trkpt>
      <trkpt lat="43.47969" lon="6.11915">
        <ele>238.6</ele>
        <time>2024-11-04T09:13:58Z</time>
      </trkpt>
      <trkpt lat="43.47979" lon="6.11915">
        <ele>239.8</ele>
        <time>2024-11-04T09:14:12Z</time>
      </trkpt>
      <trkpt lat="43.47988" lon="6.11917">
        <ele>240.9</ele>
        <time>2024-11-04T09:14:26Z</time>
      </trkpt>
      <trkpt lat="43.47997" lon="6.11918">
        <ele>242.2</ele>
        <time>2024-11-04T09:14:39Z</time>
      </trkpt>
      <trkpt lat="43.48007" lon="6.1192">
        <ele>243.1</ele>
        <time>2024-11-04T09:14:52Z</time>
      </trkpt>
      <trkpt lat="43.48015" lon="6.11926">
        <ele>243.6</ele>
        <time>2024-11-04T09:15:05Z</time>
      </trkpt>
      <trkpt lat="43.48024" lon="6.11931">
        <ele>244.1</ele>
        <time>2024-11-04T09:15:16Z</time>
      </trkpt>
      <trkpt lat="43.48032" lon="6.11936">
        <ele>244.9</ele>
        <time>2024-11-04T09:15:30Z</time>
      </trkpt>
      <trkpt lat="43.4804" lon="6.11942">
        <ele>247.2</ele>
        <time>2024-11-04T09:16:01Z</time>
      </trkpt>
      <trkpt lat="43.48048" lon="6.11949">
        <ele>248.4</ele>
        <time>2024-11-04T09:16:14Z</time>
      </trkpt>
      <trkpt lat="43.48055" lon="6.11957">
        <ele>250.6</ele>
        <time>2024-11-04T09:16:35Z</time>
      </trkpt>
      <trkpt lat="43.48064" lon="6.11962">
        <ele>252.2</ele>
        <time>2024-11-04T09:16:51Z</time>
      </trkpt>
      <trkpt lat="43.48073" lon="6.11962">
        <ele>253.5</ele>
        <time>2024-11-04T09:17:16Z</time>
      </trkpt>
      <trkpt lat="43.48082" lon="6.11963">
        <ele>254.4</ele>
        <time>2024-11-04T09:17:41Z</time>
      </trkpt>
      <trkpt lat="43.48086" lon="6.11952">
        <ele>254.2</ele>
        <time>2024-11-04T09:21:57Z</time>
      </trkpt>
      <trkpt lat="43.48092" lon="6.11942">
        <ele>254.3</ele>
        <time>2024-11-04T09:22:51Z</time>
      </trkpt>
      <trkpt lat="43.48098" lon="6.11933">
        <ele>254.9</ele>
        <time>2024-11-04T09:23:05Z</time>
      </trkpt>
      <trkpt lat="43.48107" lon="6.11927">
        <ele>255.4</ele>
        <time>2024-11-04T09:23:18Z</time>
      </trkpt>
      <trkpt lat="43.48116" lon="6.11924">
        <ele>255.5</ele>
        <time>2024-11-04T09:23:31Z</time>
      </trkpt>
      <trkpt lat="43.48123" lon="6.11915">
        <ele>256.1</ele>
        <time>2024-11-04T09:23:43Z</time>
      </trkpt>
      <trkpt lat="43.48128" lon="6.11904">
        <ele>256.4</ele>
        <time>2024-11-04T09:23:54Z</time>
      </trkpt>
      <trkpt lat="43.48136" lon="6.11898">
        <ele>256.8</ele>
        <time>2024-11-04T09:24:05Z</time>
      </trkpt>
      <trkpt lat="43.48144" lon="6.11892">
        <ele>257.2</ele>
        <time>2024-11-04T09:24:39Z</time>
      </trkpt>
      <trkpt lat="43.48154" lon="6.11891">
        <ele>257.4</ele>
        <time>2024-11-04T09:24:52Z</time>
      </trkpt>
      <trkpt lat="43.48163" lon="6.1189">
        <ele>257.6</ele>
        <time>2024-11-04T09:25:04Z</time>
      </trkpt>
      <trkpt lat="43.48173" lon="6.1189">
        <ele>258.2</ele>
        <time>2024-11-04T09:25:16Z</time>
      </trkpt>
      <trkpt lat="43.48183" lon="6.11891">
        <ele>258.3</ele>
        <time>2024-11-04T09:25:33Z</time>
      </trkpt>
      <trkpt lat="43.48192" lon="6.1189">
        <ele>258.6</ele>
        <time>2024-11-04T09:25:57Z</time>
      </trkpt>
      <trkpt lat="43.48201" lon="6.11891">
        <ele>258.7</ele>
        <time>2024-11-04T09:26:11Z</time>
      </trkpt>
      <trkpt lat="43.4821" lon="6.11894">
        <ele>258.5</ele>
        <time>2024-11-04T09:26:23Z</time>
      </trkpt>
      <trkpt lat="43.48219" lon="6.119">
        <ele>258.6</ele>
        <time>2024-11-04T09:26:35Z</time>
      </trkpt>
      <trkpt lat="43.48227" lon="6.11907">
        <ele>258.5</ele>
        <time>2024-11-04T09:26:46Z</time>
      </trkpt>
      <trkpt lat="43.48234" lon="6.11916">
        <ele>258.7</ele>
        <time>2024-11-04T09:27:00Z</time>
      </trkpt>
      <trkpt lat="43.48241" lon="6.11924">
        <ele>258.8</ele>
        <time>2024-11-04T09:27:12Z</time>
      </trkpt>
      <trkpt lat="43.4825" lon="6.1193">
        <ele>258.8</ele>
        <time>2024-11-04T09:27:32Z</time>
      </trkpt>
      <trkpt lat="43.48259" lon="6.11933">
        <ele>259</ele>
        <time>2024-11-04T09:27:44Z</time>
      </trkpt>
      <trkpt lat="43.48269" lon="6.11934">
        <ele>259.3</ele>
        <time>2024-11-04T09:27:56Z</time>
      </trkpt>
      <trkpt lat="43.48278" lon="6.11933">
        <ele>260</ele>
        <time>2024-11-04T09:28:08Z</time>
      </trkpt>
      <trkpt lat="43.48288" lon="6.11933">
        <ele>260.9</ele>
        <time>2024-11-04T09:28:20Z</time>
      </trkpt>
      <trkpt lat="43.48297" lon="6.11932">
        <ele>261.6</ele>
        <time>2024-11-04T09:28:32Z</time>
      </trkpt>
      <trkpt lat="43.48306" lon="6.11933">
        <ele>262.2</ele>
        <time>2024-11-04T09:28:45Z</time>
      </trkpt>
      <trkpt lat="43.48316" lon="6.11934">
        <ele>262.8</ele>
        <time>2024-11-04T09:28:57Z</time>
      </trkpt>
      <trkpt lat="43.48325" lon="6.11938">
        <ele>262.9</ele>
        <time>2024-11-04T09:29:08Z</time>
      </trkpt>
      <trkpt lat="43.48335" lon="6.11942">
        <ele>263.1</ele>
        <time>2024-11-04T09:29:19Z</time>
      </trkpt>
      <trkpt lat="43.48343" lon="6.11948">
        <ele>263.3</ele>
        <time>2024-11-04T09:29:30Z</time>
      </trkpt>
      <trkpt lat="43.48351" lon="6.11954">
        <ele>263.6</ele>
        <time>2024-11-04T09:29:42Z</time>
      </trkpt>
      <trkpt lat="43.4836" lon="6.11959">
        <ele>264.3</ele>
        <time>2024-11-04T09:29:53Z</time>
      </trkpt>
      <trkpt lat="43.48368" lon="6.11966">
        <ele>264.9</ele>
        <time>2024-11-04T09:30:06Z</time>
      </trkpt>
      <trkpt lat="43.48378" lon="6.11968">
        <ele>265.5</ele>
        <time>2024-11-04T09:30:21Z</time>
      </trkpt>
      <trkpt lat="43.48386" lon="6.1197">
        <ele>266.5</ele>
        <time>2024-11-04T09:30:36Z</time>
      </trkpt>
      <trkpt lat="43.48396" lon="6.11971">
        <ele>267.3</ele>
        <time>2024-11-04T09:34:08Z</time>
      </trkpt>
      <trkpt lat="43.48405" lon="6.11974">
        <ele>267.8</ele>
        <time>2024-11-04T09:34:21Z</time>
      </trkpt>
      <trkpt lat="43.48415" lon="6.11977">
        <ele>268.1</ele>
        <time>2024-11-04T09:34:32Z</time>
      </trkpt>
      <trkpt lat="43.48423" lon="6.11984">
        <ele>268.1</ele>
        <time>2024-11-04T09:34:49Z</time>
      </trkpt>
      <trkpt lat="43.48429" lon="6.11994">
        <ele>268.8</ele>
        <time>2024-11-04T09:35:02Z</time>
      </trkpt>
      <trkpt lat="43.48436" lon="6.12002">
        <ele>269.8</ele>
        <time>2024-11-04T09:35:18Z</time>
      </trkpt>
      <trkpt lat="43.48444" lon="6.12009">
        <ele>271</ele>
        <time>2024-11-04T09:35:32Z</time>
      </trkpt>
      <trkpt lat="43.48452" lon="6.12016">
        <ele>272.4</ele>
        <time>2024-11-04T09:35:46Z</time>
      </trkpt>
      <trkpt lat="43.48461" lon="6.12016">
        <ele>273.2</ele>
        <time>2024-11-04T09:36:38Z</time>
      </trkpt>
      <trkpt lat="43.4847" lon="6.12019">
        <ele>274.7</ele>
        <time>2024-11-04T09:37:01Z</time>
      </trkpt>
      <trkpt lat="43.48478" lon="6.12024">
        <ele>275.7</ele>
        <time>2024-11-04T09:37:30Z</time>
      </trkpt>
      <trkpt lat="43.48487" lon="6.12025">
        <ele>277.4</ele>
        <time>2024-11-04T09:38:24Z</time>
      </trkpt>
      <trkpt lat="43.48496" lon="6.12021">
        <ele>278.1</ele>
        <time>2024-11-04T09:39:01Z</time>
      </trkpt>
      <trkpt lat="43.48505" lon="6.12016">
        <ele>279.4</ele>
        <time>2024-11-04T09:39:14Z</time>
      </trkpt>
      <trkpt lat="43.48513" lon="6.1201">
        <ele>280.1</ele>
        <time>2024-11-04T09:39:26Z</time>
      </trkpt>
      <trkpt lat="43.48521" lon="6.12004">
        <ele>280.1</ele>
        <time>2024-11-04T09:43:15Z</time>
      </trkpt>
      <trkpt lat="43.4853" lon="6.11999">
        <ele>279.2</ele>
        <time>2024-11-04T09:43:39Z</time>
      </trkpt>
      <trkpt lat="43.48539" lon="6.11995">
        <ele>278.6</ele>
        <time>2024-11-04T09:43:52Z</time>
      </trkpt>
      <trkpt lat="43.48547" lon="6.11992">
        <ele>276.6</ele>
        <time>2024-11-04T09:44:08Z</time>
      </trkpt>
      <trkpt lat="43.48556" lon="6.11988">
        <ele>276.7</ele>
        <time>2024-11-04T09:44:22Z</time>
      </trkpt>
      <trkpt lat="43.48565" lon="6.11983">
        <ele>274.6</ele>
        <time>2024-11-04T09:44:36Z</time>
      </trkpt>
      <trkpt lat="43.48573" lon="6.11976">
        <ele>272.7</ele>
        <time>2024-11-04T09:44:53Z</time>
      </trkpt>
      <trkpt lat="43.4858" lon="6.11968">
        <ele>271.2</ele>
        <time>2024-11-04T09:45:13Z</time>
      </trkpt>
      <trkpt lat="43.48589" lon="6.11965">
        <ele>269</ele>
        <time>2024-11-04T09:45:37Z</time>
      </trkpt>
      <trkpt lat="43.48598" lon="6.11962">
        <ele>268.3</ele>
        <time>2024-11-04T09:45:53Z</time>
      </trkpt>
      <trkpt lat="43.48608" lon="6.11961">
        <ele>267.2</ele>
        <time>2024-11-04T09:46:11Z</time>
      </trkpt>
      <trkpt lat="43.48618" lon="6.11961">
        <ele>266.8</ele>
        <time>2024-11-04T09:46:28Z</time>
      </trkpt>
      <trkpt lat="43.48627" lon="6.11959">
        <ele>266.4</ele>
        <time>2024-11-04T09:46:42Z</time>
      </trkpt>
      <trkpt lat="43.48636" lon="6.11956">
        <ele>266</ele>
        <time>2024-11-04T09:46:57Z</time>
      </trkpt>
      <trkpt lat="43.48645" lon="6.11951">
        <ele>265.6</ele>
        <time>2024-11-04T09:47:16Z</time>
      </trkpt>
      <trkpt lat="43.48653" lon="6.11945">
        <ele>264.1</ele>
        <time>2024-11-04T09:47:37Z</time>
      </trkpt>
      <trkpt lat="43.48658" lon="6.11934">
        <ele>262.4</ele>
        <time>2024-11-04T09:47:56Z</time>
      </trkpt>
      <trkpt lat="43.48663" lon="6.11923">
        <ele>261.2</ele>
        <time>2024-11-04T09:48:15Z</time>
      </trkpt>
      <trkpt lat="43.48667" lon="6.11912">
        <ele>259.8</ele>
        <time>2024-11-04T09:48:36Z</time>
      </trkpt>
      <trkpt lat="43.48669" lon="6.119">
        <ele>258.9</ele>
        <time>2024-11-04T09:48:51Z</time>
      </trkpt>
      <trkpt lat="43.48674" lon="6.11888">
        <ele>257.9</ele>
        <time>2024-11-04T09:49:09Z</time>
      </trkpt>
      <trkpt lat="43.48681" lon="6.1188">
        <ele>257.3</ele>
        <time>2024-11-04T09:50:21Z</time>
      </trkpt>
      <trkpt lat="43.4869" lon="6.11875">
        <ele>255.9</ele>
        <time>2024-11-04T09:54:15Z</time>
      </trkpt>
      <trkpt lat="43.48697" lon="6.11866">
        <ele>254</ele>
        <time>2024-11-04T09:54:34Z</time>
      </trkpt>
      <trkpt lat="43.48705" lon="6.1186">
        <ele>252.1</ele>
        <time>2024-11-04T09:54:51Z</time>
      </trkpt>
      <trkpt lat="43.48714" lon="6.11856">
        <ele>250.6</ele>
        <time>2024-11-04T09:55:07Z</time>
      </trkpt>
      <trkpt lat="43.48722" lon="6.11851">
        <ele>249</ele>
        <time>2024-11-04T09:55:26Z</time>
      </trkpt>
      <trkpt lat="43.48731" lon="6.11848">
        <ele>247.7</ele>
        <time>2024-11-04T09:55:40Z</time>
      </trkpt>
      <trkpt lat="43.48741" lon="6.11844">
        <ele>246.5</ele>
        <time>2024-11-04T09:55:54Z</time>
      </trkpt>
      <trkpt lat="43.4875" lon="6.11842">
        <ele>245.2</ele>
        <time>2024-11-04T09:56:06Z</time>
      </trkpt>
      <trkpt lat="43.48758" lon="6.11837">
        <ele>243.8</ele>
        <time>2024-11-04T09:56:41Z</time>
      </trkpt>
      <trkpt lat="43.48767" lon="6.11834">
        <ele>242.8</ele>
        <time>2024-11-04T09:57:00Z</time>
      </trkpt>
      <trkpt lat="43.48776" lon="6.11832">
        <ele>241.7</ele>
        <time>2024-11-04T09:57:14Z</time>
      </trkpt>
      <trkpt lat="43.48785" lon="6.11829">
        <ele>240</ele>
        <time>2024-11-04T09:57:34Z</time>
      </trkpt>
      <trkpt lat="43.48794" lon="6.11826">
        <ele>238.8</ele>
        <time>2024-11-04T09:57:48Z</time>
      </trkpt>
      <trkpt lat="43.48802" lon="6.1182">
        <ele>236.6</ele>
        <time>2024-11-04T09:58:04Z</time>
      </trkpt>
      <trkpt lat="43.48809" lon="6.11811">
        <ele>235.2</ele>
        <time>2024-11-04T09:58:22Z</time>
      </trkpt>
      <trkpt lat="43.48818" lon="6.11809">
        <ele>235.3</ele>
        <time>2024-11-04T09:58:57Z</time>
      </trkpt>
      <trkpt lat="43.48827" lon="6.1181">
        <ele>235.5</ele>
        <time>2024-11-04T09:59:13Z</time>
      </trkpt>
      <trkpt lat="43.48837" lon="6.11811">
        <ele>236</ele>
        <time>2024-11-04T09:59:26Z</time>
      </trkpt>
      <trkpt lat="43.48845" lon="6.11815">
        <ele>236.1</ele>
        <time>2024-11-04T10:00:16Z</time>
      </trkpt>
      <trkpt lat="43.48854" lon="6.11821">
        <ele>236.7</ele>
        <time>2024-11-04T10:00:32Z</time>
      </trkpt>
      <trkpt lat="43.48861" lon="6.11829">
        <ele>236.7</ele>
        <time>2024-11-04T10:00:45Z</time>
      </trkpt>
      <trkpt lat="43.48868" lon="6.11837">
        <ele>237.3</ele>
        <time>2024-11-04T10:00:56Z</time>
      </trkpt>
      <trkpt lat="43.48876" lon="6.11845">
        <ele>237.4</ele>
        <time>2024-11-04T10:01:07Z</time>
      </trkpt>
      <trkpt lat="43.48882" lon="6.11855">
        <ele>237.8</ele>
        <time>2024-11-04T10:01:27Z</time>
      </trkpt>
      <trkpt lat="43.48892" lon="6.11854">
        <ele>239.1</ele>
        <time>2024-11-04T10:01:51Z</time>
      </trkpt>
      <trkpt lat="43.489" lon="6.11859">
        <ele>240.6</ele>
        <time>2024-11-04T10:02:07Z</time>
      </trkpt>
      <trkpt lat="43.48909" lon="6.11866">
        <ele>241.8</ele>
        <time>2024-11-04T10:02:23Z</time>
      </trkpt>
      <trkpt lat="43.48914" lon="6.11875">
        <ele>242.8</ele>
        <time>2024-11-04T10:02:41Z</time>
      </trkpt>
      <trkpt lat="43.48922" lon="6.11883">
        <ele>243.9</ele>
        <time>2024-11-04T10:02:56Z</time>
      </trkpt>
      <trkpt lat="43.4893" lon="6.11889">
        <ele>246</ele>
        <time>2024-11-04T10:03:13Z</time>
      </trkpt>
      <trkpt lat="43.48932" lon="6.11877">
        <ele>246.9</ele>
        <time>2024-11-04T10:04:16Z</time>
      </trkpt>
      <trkpt lat="43.48934" lon="6.11889">
        <ele>247.1</ele>
        <time>2024-11-04T10:05:35Z</time>
      </trkpt>
      <trkpt lat="43.48943" lon="6.11895">
        <ele>246.9</ele>
        <time>2024-11-04T10:10:33Z</time>
      </trkpt>
      <trkpt lat="43.48952" lon="6.11895">
        <ele>247.7</ele>
        <time>2024-11-04T10:11:58Z</time>
      </trkpt>
      <trkpt lat="43.48961" lon="6.11889">
        <ele>247.2</ele>
        <time>2024-11-04T10:12:13Z</time>
      </trkpt>
      <trkpt lat="43.48969" lon="6.11883">
        <ele>247.2</ele>
        <time>2024-11-04T10:12:23Z</time>
      </trkpt>
      <trkpt lat="43.48978" lon="6.1188">
        <ele>246.5</ele>
        <time>2024-11-04T10:12:37Z</time>
      </trkpt>
      <trkpt lat="43.48987" lon="6.11884">
        <ele>245.7</ele>
        <time>2024-11-04T10:12:49Z</time>
      </trkpt>
      <trkpt lat="43.48996" lon="6.11888">
        <ele>244.6</ele>
        <time>2024-11-04T10:12:59Z</time>
      </trkpt>
      <trkpt lat="43.49005" lon="6.1189">
        <ele>244</ele>
        <time>2024-11-04T10:13:08Z</time>
      </trkpt>
      <trkpt lat="43.49015" lon="6.11889">
        <ele>243.5</ele>
        <time>2024-11-04T10:13:19Z</time>
      </trkpt>
      <trkpt lat="43.49024" lon="6.11885">
        <ele>243.2</ele>
        <time>2024-11-04T10:13:30Z</time>
      </trkpt>
      <trkpt lat="43.49033" lon="6.11881">
        <ele>243</ele>
        <time>2024-11-04T10:13:41Z</time>
      </trkpt>
      <trkpt lat="43.49042" lon="6.11876">
        <ele>243</ele>
        <time>2024-11-04T10:13:51Z</time>
      </trkpt>
      <trkpt lat="43.4905" lon="6.11871">
        <ele>242.8</ele>
        <time>2024-11-04T10:14:01Z</time>
      </trkpt>
      <trkpt lat="43.49059" lon="6.11868">
        <ele>242.9</ele>
        <time>2024-11-04T10:14:15Z</time>
      </trkpt>
      <trkpt lat="43.49068" lon="6.11867">
        <ele>243.1</ele>
        <time>2024-11-04T10:14:26Z</time>
      </trkpt>
      <trkpt lat="43.49077" lon="6.11865">
        <ele>243.4</ele>
        <time>2024-11-04T10:14:37Z</time>
      </trkpt>
      <trkpt lat="43.49086" lon="6.1186">
        <ele>243.7</ele>
        <time>2024-11-04T10:14:48Z</time>
      </trkpt>
      <trkpt lat="43.49095" lon="6.11857">
        <ele>244</ele>
        <time>2024-11-04T10:15:00Z</time>
      </trkpt>
      <trkpt lat="43.49103" lon="6.1185">
        <ele>244.3</ele>
        <time>2024-11-04T10:15:11Z</time>
      </trkpt>
      <trkpt lat="43.49112" lon="6.11848">
        <ele>244.6</ele>
        <time>2024-11-04T10:15:22Z</time>
      </trkpt>
      <trkpt lat="43.49122" lon="6.11848">
        <ele>244.6</ele>
        <time>2024-11-04T10:15:33Z</time>
      </trkpt>
      <trkpt lat="43.49131" lon="6.11846">
        <ele>245</ele>
        <time>2024-11-04T10:15:44Z</time>
      </trkpt>
      <trkpt lat="43.49141" lon="6.11845">
        <ele>245.1</ele>
        <time>2024-11-04T10:15:57Z</time>
      </trkpt>
      <trkpt lat="43.49146" lon="6.11856">
        <ele>245.3</ele>
        <time>2024-11-04T10:17:12Z</time>
      </trkpt>
      <trkpt lat="43.49146" lon="6.11869">
        <ele>243.7</ele>
        <time>2024-11-04T10:17:24Z</time>
      </trkpt>
      <trkpt lat="43.49148" lon="6.11882">
        <ele>242</ele>
        <time>2024-11-04T10:17:36Z</time>
      </trkpt>
      <trkpt lat="43.4915" lon="6.11894">
        <ele>241.1</ele>
        <time>2024-11-04T10:17:48Z</time>
      </trkpt>
      <trkpt lat="43.49151" lon="6.11906">
        <ele>240.1</ele>
        <time>2024-11-04T10:18:01Z</time>
      </trkpt>
      <trkpt lat="43.49152" lon="6.11919">
        <ele>239.7</ele>
        <time>2024-11-04T10:18:14Z</time>
      </trkpt>
      <trkpt lat="43.49153" lon="6.11932">
        <ele>239.2</ele>
        <time>2024-11-04T10:18:27Z</time>
      </trkpt>
      <trkpt lat="43.49154" lon="6.11944">
        <ele>238.8</ele>
        <time>2024-11-04T10:18:38Z</time>
      </trkpt>
      <trkpt lat="43.49155" lon="6.11957">
        <ele>238.2</ele>
        <time>2024-11-04T10:18:51Z</time>
      </trkpt>
      <trkpt lat="43.49157" lon="6.1197">
        <ele>237.3</ele>
        <time>2024-11-04T10:19:02Z</time>
      </trkpt>
      <trkpt lat="43.49156" lon="6.11983">
        <ele>236.6</ele>
        <time>2024-11-04T10:19:15Z</time>
      </trkpt>
      <trkpt lat="43.49156" lon="6.11997">
        <ele>235.2</ele>
        <time>2024-11-04T10:19:29Z</time>
      </trkpt>
      <trkpt lat="43.49158" lon="6.12009">
        <ele>233.4</ele>
        <time>2024-11-04T10:19:44Z</time>
      </trkpt>
      <trkpt lat="43.49156" lon="6.12022">
        <ele>232</ele>
        <time>2024-11-04T10:20:03Z</time>
      </trkpt>
      <trkpt lat="43.49155" lon="6.12034">
        <ele>230.3</ele>
        <time>2024-11-04T10:20:32Z</time>
      </trkpt>
      <trkpt lat="43.49152" lon="6.12046">
        <ele>228.2</ele>
        <time>2024-11-04T10:21:05Z</time>
      </trkpt>
      <trkpt lat="43.49146" lon="6.12056">
        <ele>227.2</ele>
        <time>2024-11-04T10:23:23Z</time>
      </trkpt>
      <trkpt lat="43.49143" lon="6.12069">
        <ele>225.8</ele>
        <time>2024-11-04T10:23:36Z</time>
      </trkpt>
      <trkpt lat="43.49142" lon="6.12081">
        <ele>224.3</ele>
        <time>2024-11-04T10:23:47Z</time>
      </trkpt>
      <trkpt lat="43.49139" lon="6.12094">
        <ele>222.4</ele>
        <time>2024-11-04T10:24:01Z</time>
      </trkpt>
      <trkpt lat="43.49138" lon="6.12106">
        <ele>220.5</ele>
        <time>2024-11-04T10:24:15Z</time>
      </trkpt>
      <trkpt lat="43.49139" lon="6.12119">
        <ele>218.8</ele>
        <time>2024-11-04T10:24:33Z</time>
      </trkpt>
      <trkpt lat="43.49145" lon="6.12127">
        <ele>216.7</ele>
        <time>2024-11-04T10:25:05Z</time>
      </trkpt>
      <trkpt lat="43.49151" lon="6.12138">
        <ele>216.1</ele>
        <time>2024-11-04T10:25:19Z</time>
      </trkpt>
      <trkpt lat="43.49156" lon="6.12148">
        <ele>215.7</ele>
        <time>2024-11-04T10:25:36Z</time>
      </trkpt>
      <trkpt lat="43.49163" lon="6.12157">
        <ele>215.7</ele>
        <time>2024-11-04T10:26:09Z</time>
      </trkpt>
      <trkpt lat="43.49154" lon="6.12162">
        <ele>216.2</ele>
        <time>2024-11-04T10:27:18Z</time>
      </trkpt>
      <trkpt lat="43.49146" lon="6.12165">
        <ele>215.3</ele>
        <time>2024-11-04T10:28:53Z</time>
      </trkpt>
      <trkpt lat="43.49138" lon="6.12173">
        <ele>214.6</ele>
        <time>2024-11-04T10:29:45Z</time>
      </trkpt>
      <trkpt lat="43.49131" lon="6.12181">
        <ele>214</ele>
        <time>2024-11-04T10:29:57Z</time>
      </trkpt>
      <trkpt lat="43.49125" lon="6.1219">
        <ele>213.5</ele>
        <time>2024-11-04T10:30:08Z</time>
      </trkpt>
      <trkpt lat="43.49121" lon="6.12203">
        <ele>212.7</ele>
        <time>2024-11-04T10:30:19Z</time>
      </trkpt>
      <trkpt lat="43.49118" lon="6.12215">
        <ele>211.6</ele>
        <time>2024-11-04T10:30:29Z</time>
      </trkpt>
      <trkpt lat="43.49114" lon="6.12226">
        <ele>211.3</ele>
        <time>2024-11-04T10:30:39Z</time>
      </trkpt>
      <trkpt lat="43.49111" lon="6.12239">
        <ele>211.2</ele>
        <time>2024-11-04T10:30:49Z</time>
      </trkpt>
      <trkpt lat="43.49106" lon="6.1225">
        <ele>210.7</ele>
        <time>2024-11-04T10:31:00Z</time>
      </trkpt>
      <trkpt lat="43.491" lon="6.1226">
        <ele>210.3</ele>
        <time>2024-11-04T10:31:10Z</time>
      </trkpt>
      <trkpt lat="43.49094" lon="6.1227">
        <ele>210.4</ele>
        <time>2024-11-04T10:31:22Z</time>
      </trkpt>
      <trkpt lat="43.49088" lon="6.1228">
        <ele>210.1</ele>
        <time>2024-11-04T10:31:43Z</time>
      </trkpt>
      <trkpt lat="43.49082" lon="6.1229">
        <ele>209.2</ele>
        <time>2024-11-04T10:32:01Z</time>
      </trkpt>
      <trkpt lat="43.49078" lon="6.12301">
        <ele>207.4</ele>
        <time>2024-11-04T10:32:24Z</time>
      </trkpt>
      <trkpt lat="43.49073" lon="6.12311">
        <ele>207.5</ele>
        <time>2024-11-04T10:32:34Z</time>
      </trkpt>
      <trkpt lat="43.49068" lon="6.12322">
        <ele>206.6</ele>
        <time>2024-11-04T10:32:44Z</time>
      </trkpt>
      <trkpt lat="43.49062" lon="6.12332">
        <ele>205.8</ele>
        <time>2024-11-04T10:32:56Z</time>
      </trkpt>
      <trkpt lat="43.49057" lon="6.12343">
        <ele>205.1</ele>
        <time>2024-11-04T10:33:09Z</time>
      </trkpt>
      <trkpt lat="43.49056" lon="6.12356">
        <ele>204.4</ele>
        <time>2024-11-04T10:33:26Z</time>
      </trkpt>
      <trkpt lat="43.49059" lon="6.12368">
        <ele>203.7</ele>
        <time>2024-11-04T10:33:42Z</time>
      </trkpt>
      <trkpt lat="43.49063" lon="6.1238">
        <ele>202.8</ele>
        <time>2024-11-04T10:33:56Z</time>
      </trkpt>
      <trkpt lat="43.49061" lon="6.12392">
        <ele>202.3</ele>
        <time>2024-11-04T10:34:09Z</time>
      </trkpt>
      <trkpt lat="43.49059" lon="6.12404">
        <ele>202.1</ele>
        <time>2024-11-04T10:34:21Z</time>
      </trkpt>
      <trkpt lat="43.4905" lon="6.12411">
        <ele>201.8</ele>
        <time>2024-11-04T10:34:31Z</time>
      </trkpt>
      <trkpt lat="43.49041" lon="6.12413">
        <ele>202.1</ele>
        <time>2024-11-04T10:34:42Z</time>
      </trkpt>
      <trkpt lat="43.49032" lon="6.12413">
        <ele>202.2</ele>
        <time>2024-11-04T10:34:53Z</time>
      </trkpt>
      <trkpt lat="43.49022" lon="6.12415">
        <ele>203.2</ele>
        <time>2024-11-04T10:35:08Z</time>
      </trkpt>
      <trkpt lat="43.49016" lon="6.12424">
        <ele>203.7</ele>
        <time>2024-11-04T10:35:24Z</time>
      </trkpt>
      <trkpt lat="43.49014" lon="6.12437">
        <ele>203.9</ele>
        <time>2024-11-04T10:35:58Z</time>
      </trkpt>
      <trkpt lat="43.4901" lon="6.12448">
        <ele>204</ele>
        <time>2024-11-04T10:36:10Z</time>
      </trkpt>
      <trkpt lat="43.49007" lon="6.1246">
        <ele>204.1</ele>
        <time>2024-11-04T10:36:21Z</time>
      </trkpt>
      <trkpt lat="43.49006" lon="6.12473">
        <ele>204.1</ele>
        <time>2024-11-04T10:36:33Z</time>
      </trkpt>
      <trkpt lat="43.49003" lon="6.12486">
        <ele>204.4</ele>
        <time>2024-11-04T10:36:44Z</time>
      </trkpt>
      <trkpt lat="43.49" lon="6.12498">
        <ele>204.6</ele>
        <time>2024-11-04T10:36:56Z</time>
      </trkpt>
      <trkpt lat="43.48996" lon="6.12509">
        <ele>204.4</ele>
        <time>2024-11-04T10:37:07Z</time>
      </trkpt>
      <trkpt lat="43.48992" lon="6.12521">
        <ele>204.2</ele>
        <time>2024-11-04T10:37:29Z</time>
      </trkpt>
      <trkpt lat="43.48988" lon="6.12533">
        <ele>203.8</ele>
        <time>2024-11-04T10:37:58Z</time>
      </trkpt>
      <trkpt lat="43.48985" lon="6.12546">
        <ele>203.8</ele>
        <time>2024-11-04T10:38:09Z</time>
      </trkpt>
      <trkpt lat="43.48983" lon="6.12558">
        <ele>203.5</ele>
        <time>2024-11-04T10:38:19Z</time>
      </trkpt>
      <trkpt lat="43.4898" lon="6.12571">
        <ele>203.5</ele>
        <time>2024-11-04T10:38:28Z</time>
      </trkpt>
      <trkpt lat="43.48976" lon="6.12583">
        <ele>203.1</ele>
        <time>2024-11-04T10:38:37Z</time>
      </trkpt>
      <trkpt lat="43.48972" lon="6.12595">
        <ele>203</ele>
        <time>2024-11-04T10:38:46Z</time>
      </trkpt>
      <trkpt lat="43.48967" lon="6.12606">
        <ele>202.6</ele>
        <time>2024-11-04T10:38:55Z</time>
      </trkpt>
      <trkpt lat="43.48961" lon="6.12618">
        <ele>202</ele>
        <time>2024-11-04T10:39:05Z</time>
      </trkpt>
      <trkpt lat="43.48956" lon="6.12629">
        <ele>201.3</ele>
        <time>2024-11-04T10:39:15Z</time>
      </trkpt>
      <trkpt lat="43.48951" lon="6.1264">
        <ele>200.6</ele>
        <time>2024-11-04T10:39:24Z</time>
      </trkpt>
      <trkpt lat="43.48946" lon="6.12651">
        <ele>200</ele>
        <time>2024-11-04T10:39:33Z</time>
      </trkpt>
      <trkpt lat="43.48941" lon="6.12662">
        <ele>199.7</ele>
        <time>2024-11-04T10:39:42Z</time>
      </trkpt>
      <trkpt lat="43.48935" lon="6.12673">
        <ele>199.1</ele>
        <time>2024-11-04T10:39:53Z</time>
      </trkpt>
      <trkpt lat="43.48936" lon="6.12686">
        <ele>197.9</ele>
        <time>2024-11-04T10:40:18Z</time>
      </trkpt>
      <trkpt lat="43.48942" lon="6.12696">
        <ele>197.1</ele>
        <time>2024-11-04T10:40:38Z</time>
      </trkpt>
      <trkpt lat="43.4895" lon="6.12703">
        <ele>196.4</ele>
        <time>2024-11-04T10:40:50Z</time>
      </trkpt>
      <trkpt lat="43.48959" lon="6.1271">
        <ele>196</ele>
        <time>2024-11-04T10:41:05Z</time>
      </trkpt>
      <trkpt lat="43.48966" lon="6.12719">
        <ele>195.6</ele>
        <time>2024-11-04T10:41:16Z</time>
      </trkpt>
      <trkpt lat="43.48969" lon="6.12731">
        <ele>194.2</ele>
        <time>2024-11-04T10:41:28Z</time>
      </trkpt>
      <trkpt lat="43.48977" lon="6.12739">
        <ele>193.8</ele>
        <time>2024-11-04T10:41:37Z</time>
      </trkpt>
      <trkpt lat="43.48984" lon="6.12747">
        <ele>193.6</ele>
        <time>2024-11-04T10:41:47Z</time>
      </trkpt>
      <trkpt lat="43.48987" lon="6.12759">
        <ele>193</ele>
        <time>2024-11-04T10:42:04Z</time>
      </trkpt>
      <trkpt lat="43.48984" lon="6.12771">
        <ele>192.7</ele>
        <time>2024-11-04T10:42:15Z</time>
      </trkpt>
      <trkpt lat="43.48979" lon="6.12783">
        <ele>192.4</ele>
        <time>2024-11-04T10:42:27Z</time>
      </trkpt>
      <trkpt lat="43.48975" lon="6.12795">
        <ele>192.4</ele>
        <time>2024-11-04T10:42:38Z</time>
      </trkpt>
      <trkpt lat="43.48972" lon="6.12808">
        <ele>192</ele>
        <time>2024-11-04T10:42:48Z</time>
      </trkpt>
      <trkpt lat="43.4897" lon="6.1282">
        <ele>191.3</ele>
        <time>2024-11-04T10:42:58Z</time>
      </trkpt>
      <trkpt lat="43.4897" lon="6.12833">
        <ele>190.9</ele>
        <time>2024-11-04T10:43:08Z</time>
      </trkpt>
      <trkpt lat="43.48971" lon="6.12847">
        <ele>190.2</ele>
        <time>2024-11-04T10:43:19Z</time>
      </trkpt>
      <trkpt lat="43.4897" lon="6.1286">
        <ele>189.8</ele>
        <time>2024-11-04T10:43:29Z</time>
      </trkpt>
      <trkpt lat="43.4897" lon="6.12873">
        <ele>189.3</ele>
        <time>2024-11-04T10:43:38Z</time>
      </trkpt>
      <trkpt lat="43.48967" lon="6.12885">
        <ele>189.1</ele>
        <time>2024-11-04T10:43:48Z</time>
      </trkpt>
      <trkpt lat="43.48959" lon="6.12893">
        <ele>189</ele>
        <time>2024-11-04T10:43:58Z</time>
      </trkpt>
      <trkpt lat="43.4895" lon="6.12898">
        <ele>189</ele>
        <time>2024-11-04T10:44:08Z</time>
      </trkpt>
      <trkpt lat="43.48941" lon="6.12902">
        <ele>189.1</ele>
        <time>2024-11-04T10:44:17Z</time>
      </trkpt>
      <trkpt lat="43.48932" lon="6.12906">
        <ele>188.9</ele>
        <time>2024-11-04T10:44:27Z</time>
      </trkpt>
      <trkpt lat="43.48923" lon="6.12909">
        <ele>188.7</ele>
        <time>2024-11-04T10:44:36Z</time>
      </trkpt>
      <trkpt lat="43.48913" lon="6.12913">
        <ele>188.8</ele>
        <time>2024-11-04T10:44:46Z</time>
      </trkpt>
      <trkpt lat="43.48904" lon="6.12918">
        <ele>188.4</ele>
        <time>2024-11-04T10:44:56Z</time>
      </trkpt>
      <trkpt lat="43.48898" lon="6.12927">
        <ele>187.9</ele>
        <time>2024-11-04T10:45:07Z</time>
      </trkpt>
      <trkpt lat="43.48893" lon="6.12939">
        <ele>187.6</ele>
        <time>2024-11-04T10:45:19Z</time>
      </trkpt>
      <trkpt lat="43.48887" lon="6.1295">
        <ele>187.3</ele>
        <time>2024-11-04T10:45:29Z</time>
      </trkpt>
      <trkpt lat="43.4888" lon="6.12958">
        <ele>187</ele>
        <time>2024-11-04T10:45:39Z</time>
      </trkpt>
      <trkpt lat="43.48871" lon="6.12962">
        <ele>187</ele>
        <time>2024-11-04T10:45:51Z</time>
      </trkpt>
      <trkpt lat="43.48862" lon="6.12965">
        <ele>187.1</ele>
        <time>2024-11-04T10:46:34Z</time>
      </trkpt>
      <trkpt lat="43.48856" lon="6.12975">
        <ele>186.9</ele>
        <time>2024-11-04T10:47:03Z</time>
      </trkpt>
      <trkpt lat="43.48847" lon="6.1298">
        <ele>186.5</ele>
        <time>2024-11-04T10:47:20Z</time>
      </trkpt>
      <trkpt lat="43.4884" lon="6.12989">
        <ele>186.5</ele>
        <time>2024-11-04T10:47:32Z</time>
      </trkpt>
      <trkpt lat="43.48832" lon="6.12996">
        <ele>186.5</ele>
        <time>2024-11-04T10:47:43Z</time>
      </trkpt>
      <trkpt lat="43.48822" lon="6.12998">
        <ele>186.6</ele>
        <time>2024-11-04T10:47:53Z</time>
      </trkpt>
      <trkpt lat="43.48815" lon="6.13005">
        <ele>188</ele>
        <time>2024-11-04T10:48:06Z</time>
      </trkpt>
      <trkpt lat="43.48815" lon="6.13018">
        <ele>187.9</ele>
        <time>2024-11-04T10:48:18Z</time>
      </trkpt>
      <trkpt lat="43.48814" lon="6.13031">
        <ele>187.5</ele>
        <time>2024-11-04T10:48:30Z</time>
      </trkpt>
      <trkpt lat="43.48812" lon="6.13044">
        <ele>187.2</ele>
        <time>2024-11-04T10:48:45Z</time>
      </trkpt>
      <trkpt lat="43.48812" lon="6.13058">
        <ele>186.7</ele>
        <time>2024-11-04T10:48:58Z</time>
      </trkpt>
      <trkpt lat="43.48811" lon="6.13071">
        <ele>186.4</ele>
        <time>2024-11-04T10:49:08Z</time>
      </trkpt>
      <trkpt lat="43.4881" lon="6.13084">
        <ele>186.2</ele>
        <time>2024-11-04T10:49:19Z</time>
      </trkpt>
      <trkpt lat="43.48811" lon="6.13097">
        <ele>185.4</ele>
        <time>2024-11-04T10:49:30Z</time>
      </trkpt>
      <trkpt lat="43.48812" lon="6.1311">
        <ele>185</ele>
        <time>2024-11-04T10:49:40Z</time>
      </trkpt>
      <trkpt lat="43.48812" lon="6.13123">
        <ele>184.7</ele>
        <time>2024-11-04T10:49:50Z</time>
      </trkpt>
      <trkpt lat="43.48809" lon="6.13136">
        <ele>184.4</ele>
        <time>2024-11-04T10:50:01Z</time>
      </trkpt>
      <trkpt lat="43.48802" lon="6.13144">
        <ele>184.6</ele>
        <time>2024-11-04T10:50:12Z</time>
      </trkpt>
      <trkpt lat="43.48794" lon="6.13152">
        <ele>184.6</ele>
        <time>2024-11-04T10:50:22Z</time>
      </trkpt>
      <trkpt lat="43.48787" lon="6.1316">
        <ele>184.4</ele>
        <time>2024-11-04T10:50:34Z</time>
      </trkpt>
      <trkpt lat="43.4878" lon="6.13168">
        <ele>183.5</ele>
        <time>2024-11-04T10:50:45Z</time>
      </trkpt>
      <trkpt lat="43.48772" lon="6.13175">
        <ele>184.3</ele>
        <time>2024-11-04T10:50:56Z</time>
      </trkpt>
      <trkpt lat="43.48764" lon="6.13183">
        <ele>184</ele>
        <time>2024-11-04T10:51:07Z</time>
      </trkpt>
      <trkpt lat="43.48755" lon="6.1319">
        <ele>183.8</ele>
        <time>2024-11-04T10:51:16Z</time>
      </trkpt>
      <trkpt lat="43.48749" lon="6.13199">
        <ele>183.6</ele>
        <time>2024-11-04T10:51:26Z</time>
      </trkpt>
      <trkpt lat="43.48743" lon="6.13209">
        <ele>183.4</ele>
        <time>2024-11-04T10:51:37Z</time>
      </trkpt>
      <trkpt lat="43.48736" lon="6.13218">
        <ele>183.1</ele>
        <time>2024-11-04T10:51:48Z</time>
      </trkpt>
      <trkpt lat="43.48729" lon="6.13227">
        <ele>182.8</ele>
        <time>2024-11-04T10:51:58Z</time>
      </trkpt>
      <trkpt lat="43.48722" lon="6.13236">
        <ele>182.7</ele>
        <time>2024-11-04T10:52:07Z</time>
      </trkpt>
      <trkpt lat="43.48714" lon="6.13244">
        <ele>182.5</ele>
        <time>2024-11-04T10:52:17Z</time>
      </trkpt>
      <trkpt lat="43.48708" lon="6.13253">
        <ele>182.3</ele>
        <time>2024-11-04T10:52:28Z</time>
      </trkpt>
      <trkpt lat="43.48702" lon="6.13262">
        <ele>182</ele>
        <time>2024-11-04T10:52:36Z</time>
      </trkpt>
      <trkpt lat="43.48698" lon="6.13274">
        <ele>181.5</ele>
        <time>2024-11-04T10:52:52Z</time>
      </trkpt>
      <trkpt lat="43.48701" lon="6.13286">
        <ele>181.4</ele>
        <time>2024-11-04T10:53:18Z</time>
      </trkpt>
      <trkpt lat="43.48704" lon="6.13298">
        <ele>181.2</ele>
        <time>2024-11-04T10:54:05Z</time>
      </trkpt>
      <trkpt lat="43.48701" lon="6.13311">
        <ele>181</ele>
        <time>2024-11-04T10:54:16Z</time>
      </trkpt>
      <trkpt lat="43.48699" lon="6.13325">
        <ele>180.6</ele>
        <time>2024-11-04T10:54:29Z</time>
      </trkpt>
      <trkpt lat="43.48694" lon="6.13336">
        <ele>180.3</ele>
        <time>2024-11-04T10:54:40Z</time>
      </trkpt>
      <trkpt lat="43.48689" lon="6.13346">
        <ele>180.2</ele>
        <time>2024-11-04T10:54:49Z</time>
      </trkpt>
      <trkpt lat="43.48682" lon="6.13355">
        <ele>180.2</ele>
        <time>2024-11-04T10:54:57Z</time>
      </trkpt>
      <trkpt lat="43.48676" lon="6.13365">
        <ele>180.1</ele>
        <time>2024-11-04T10:55:09Z</time>
      </trkpt>
      <trkpt lat="43.48684" lon="6.13369">
        <ele>180.3</ele>
        <time>2024-11-04T10:56:04Z</time>
      </trkpt>
      <trkpt lat="43.48692" lon="6.13363">
        <ele>180.9</ele>
        <time>2024-11-04T10:57:16Z</time>
      </trkpt>
      <trkpt lat="43.48701" lon="6.13357">
        <ele>181.4</ele>
        <time>2024-11-04T10:57:32Z</time>
      </trkpt>
      <trkpt lat="43.48709" lon="6.13354">
        <ele>181.5</ele>
        <time>2024-11-04T10:57:41Z</time>
      </trkpt>
      <trkpt lat="43.48719" lon="6.1335">
        <ele>181.7</ele>
        <time>2024-11-04T10:57:51Z</time>
      </trkpt>
      <trkpt lat="43.48728" lon="6.13347">
        <ele>182.1</ele>
        <time>2024-11-04T10:58:01Z</time>
      </trkpt>
      <trkpt lat="43.48737" lon="6.13343">
        <ele>182.4</ele>
        <time>2024-11-04T10:58:11Z</time>
      </trkpt>
      <trkpt lat="43.48746" lon="6.13337">
        <ele>182.8</ele>
        <time>2024-11-04T10:58:23Z</time>
      </trkpt>
      <trkpt lat="43.48755" lon="6.13332">
        <ele>182.9</ele>
        <time>2024-11-04T10:58:38Z</time>
      </trkpt>
      <trkpt lat="43.48763" lon="6.13326">
        <ele>183.3</ele>
        <time>2024-11-04T10:58:48Z</time>
      </trkpt>
      <trkpt lat="43.48771" lon="6.13319">
        <ele>183.7</ele>
        <time>2024-11-04T10:59:00Z</time>
      </trkpt>
      <trkpt lat="43.48779" lon="6.13312">
        <ele>183.9</ele>
        <time>2024-11-04T10:59:10Z</time>
      </trkpt>
      <trkpt lat="43.48787" lon="6.13305">
        <ele>184</ele>
        <time>2024-11-04T10:59:20Z</time>
      </trkpt>
      <trkpt lat="43.48794" lon="6.13296">
        <ele>184.3</ele>
        <time>2024-11-04T10:59:30Z</time>
      </trkpt>
      <trkpt lat="43.488" lon="6.13286">
        <ele>184.5</ele>
        <time>2024-11-04T10:59:40Z</time>
      </trkpt>
      <trkpt lat="43.48806" lon="6.13276">
        <ele>184.7</ele>
        <time>2024-11-04T10:59:51Z</time>
      </trkpt>
      <trkpt lat="43.48813" lon="6.13267">
        <ele>184.9</ele>
        <time>2024-11-04T11:00:01Z</time>
      </trkpt>
      <trkpt lat="43.48819" lon="6.13258">
        <ele>185.1</ele>
        <time>2024-11-04T11:00:11Z</time>
      </trkpt>
      <trkpt lat="43.48826" lon="6.13247">
        <ele>185.3</ele>
        <time>2024-11-04T11:00:22Z</time>
      </trkpt>
      <trkpt lat="43.48832" lon="6.13237">
        <ele>185.7</ele>
        <time>2024-11-04T11:00:33Z</time>
      </trkpt>
      <trkpt lat="43.48838" lon="6.13228">
        <ele>186</ele>
        <time>2024-11-04T11:00:44Z</time>
      </trkpt>
      <trkpt lat="43.48845" lon="6.13218">
        <ele>186.2</ele>
        <time>2024-11-04T11:00:54Z</time>
      </trkpt>
      <trkpt lat="43.4885" lon="6.13207">
        <ele>186.4</ele>
        <time>2024-11-04T11:01:05Z</time>
      </trkpt>
      <trkpt lat="43.48856" lon="6.13197">
        <ele>186.7</ele>
        <time>2024-11-04T11:01:15Z</time>
      </trkpt>
      <trkpt lat="43.48862" lon="6.13186">
        <ele>187.1</ele>
        <time>2024-11-04T11:01:26Z</time>
      </trkpt>
      <trkpt lat="43.48868" lon="6.13176">
        <ele>187.2</ele>
        <time>2024-11-04T11:01:36Z</time>
      </trkpt>
      <trkpt lat="43.48873" lon="6.13166">
        <ele>187.5</ele>
        <time>2024-11-04T11:01:46Z</time>
      </trkpt>
      <trkpt lat="43.48878" lon="6.13156">
        <ele>187.9</ele>
        <time>2024-11-04T11:01:57Z</time>
      </trkpt>
      <trkpt lat="43.48884" lon="6.13146">
        <ele>188.2</ele>
        <time>2024-11-04T11:02:07Z</time>
      </trkpt>
      <trkpt lat="43.4889" lon="6.13135">
        <ele>188.6</ele>
        <time>2024-11-04T11:02:18Z</time>
      </trkpt>
      <trkpt lat="43.48895" lon="6.13125">
        <ele>189</ele>
        <time>2024-11-04T11:02:29Z</time>
      </trkpt>
      <trkpt lat="43.48901" lon="6.13115">
        <ele>189.4</ele>
        <time>2024-11-04T11:02:39Z</time>
      </trkpt>
      <trkpt lat="43.48906" lon="6.13104">
        <ele>189.8</ele>
        <time>2024-11-04T11:02:51Z</time>
      </trkpt>
      <trkpt lat="43.48912" lon="6.13093">
        <ele>190.4</ele>
        <time>2024-11-04T11:03:04Z</time>
      </trkpt>
      <trkpt lat="43.48918" lon="6.13083">
        <ele>191</ele>
        <time>2024-11-04T11:03:15Z</time>
      </trkpt>
      <trkpt lat="43.48924" lon="6.13073">
        <ele>191.6</ele>
        <time>2024-11-04T11:03:26Z</time>
      </trkpt>
      <trkpt lat="43.4893" lon="6.13062">
        <ele>192.1</ele>
        <time>2024-11-04T11:03:37Z</time>
      </trkpt>
      <trkpt lat="43.48935" lon="6.13052">
        <ele>192.9</ele>
        <time>2024-11-04T11:03:48Z</time>
      </trkpt>
      <trkpt lat="43.48941" lon="6.13041">
        <ele>193.6</ele>
        <time>2024-11-04T11:04:00Z</time>
      </trkpt>
      <trkpt lat="43.48947" lon="6.13032">
        <ele>194.3</ele>
        <time>2024-11-04T11:04:11Z</time>
      </trkpt>
      <trkpt lat="43.48951" lon="6.1302">
        <ele>195</ele>
        <time>2024-11-04T11:04:22Z</time>
      </trkpt>
      <trkpt lat="43.48957" lon="6.1301">
        <ele>195.4</ele>
        <time>2024-11-04T11:04:33Z</time>
      </trkpt>
      <trkpt lat="43.48962" lon="6.12999">
        <ele>195.8</ele>
        <time>2024-11-04T11:04:47Z</time>
      </trkpt>
      <trkpt lat="43.48968" lon="6.12989">
        <ele>196.2</ele>
        <time>2024-11-04T11:04:58Z</time>
      </trkpt>
      <trkpt lat="43.48974" lon="6.12978">
        <ele>196.8</ele>
        <time>2024-11-04T11:05:09Z</time>
      </trkpt>
      <trkpt lat="43.48981" lon="6.12969">
        <ele>197.2</ele>
        <time>2024-11-04T11:05:24Z</time>
      </trkpt>
      <trkpt lat="43.48985" lon="6.12957">
        <ele>197.7</ele>
        <time>2024-11-04T11:05:35Z</time>
      </trkpt>
      <trkpt lat="43.48991" lon="6.12948">
        <ele>198.1</ele>
        <time>2024-11-04T11:05:46Z</time>
      </trkpt>
      <trkpt lat="43.48997" lon="6.12937">
        <ele>198.6</ele>
        <time>2024-11-04T11:05:58Z</time>
      </trkpt>
      <trkpt lat="43.49002" lon="6.12926">
        <ele>198.8</ele>
        <time>2024-11-04T11:06:10Z</time>
      </trkpt>
      <trkpt lat="43.49007" lon="6.12915">
        <ele>199.3</ele>
        <time>2024-11-04T11:06:20Z</time>
      </trkpt>
      <trkpt lat="43.49013" lon="6.12905">
        <ele>199.6</ele>
        <time>2024-11-04T11:06:30Z</time>
      </trkpt>
      <trkpt lat="43.49019" lon="6.12895">
        <ele>199.8</ele>
        <time>2024-11-04T11:06:40Z</time>
      </trkpt>
      <trkpt lat="43.49024" lon="6.12884">
        <ele>200.1</ele>
        <time>2024-11-04T11:06:50Z</time>
      </trkpt>
      <trkpt lat="43.4903" lon="6.12874">
        <ele>200.3</ele>
        <time>2024-11-04T11:07:00Z</time>
      </trkpt>
      <trkpt lat="43.49035" lon="6.12863">
        <ele>200.7</ele>
        <time>2024-11-04T11:07:11Z</time>
      </trkpt>
      <trkpt lat="43.49039" lon="6.12851">
        <ele>201.1</ele>
        <time>2024-11-04T11:07:21Z</time>
      </trkpt>
      <trkpt lat="43.49042" lon="6.12839">
        <ele>201.4</ele>
        <time>2024-11-04T11:07:32Z</time>
      </trkpt>
      <trkpt lat="43.49046" lon="6.12827">
        <ele>201.6</ele>
        <time>2024-11-04T11:07:45Z</time>
      </trkpt>
      <trkpt lat="43.49043" lon="6.12815">
        <ele>201.7</ele>
        <time>2024-11-04T11:07:59Z</time>
      </trkpt>
      <trkpt lat="43.49044" lon="6.12802">
        <ele>202.3</ele>
        <time>2024-11-04T11:08:57Z</time>
      </trkpt>
      <trkpt lat="43.49044" lon="6.12789">
        <ele>202.5</ele>
        <time>2024-11-04T11:09:13Z</time>
      </trkpt>
      <trkpt lat="43.49044" lon="6.12802">
        <ele>202.1</ele>
        <time>2024-11-04T11:11:11Z</time>
      </trkpt>
      <trkpt lat="43.49048" lon="6.12813">
        <ele>202</ele>
        <time>2024-11-04T11:15:10Z</time>
      </trkpt>
      <trkpt lat="43.49047" lon="6.12827">
        <ele>202</ele>
        <time>2024-11-04T11:15:20Z</time>
      </trkpt>
      <trkpt lat="43.49044" lon="6.12839">
        <ele>201.7</ele>
        <time>2024-11-04T11:15:29Z</time>
      </trkpt>
      <trkpt lat="43.49041" lon="6.12851">
        <ele>201.5</ele>
        <time>2024-11-04T11:15:40Z</time>
      </trkpt>
      <trkpt lat="43.49036" lon="6.12862">
        <ele>200.9</ele>
        <time>2024-11-04T11:15:58Z</time>
      </trkpt>
      <trkpt lat="43.49031" lon="6.12873">
        <ele>200.5</ele>
        <time>2024-11-04T11:16:09Z</time>
      </trkpt>
      <trkpt lat="43.49023" lon="6.12882">
        <ele>200.2</ele>
        <time>2024-11-04T11:16:28Z</time>
      </trkpt>
      <trkpt lat="43.49017" lon="6.12892">
        <ele>199.7</ele>
        <time>2024-11-04T11:16:44Z</time>
      </trkpt>
      <trkpt lat="43.49012" lon="6.12903">
        <ele>199.5</ele>
        <time>2024-11-04T11:16:55Z</time>
      </trkpt>
      <trkpt lat="43.49007" lon="6.12914">
        <ele>199.2</ele>
        <time>2024-11-04T11:17:05Z</time>
      </trkpt>
      <trkpt lat="43.49003" lon="6.12924">
        <ele>198.9</ele>
        <time>2024-11-04T11:17:16Z</time>
      </trkpt>
      <trkpt lat="43.48997" lon="6.12935">
        <ele>199.4</ele>
        <time>2024-11-04T11:17:26Z</time>
      </trkpt>
      <trkpt lat="43.48993" lon="6.12947">
        <ele>198</ele>
        <time>2024-11-04T11:17:44Z</time>
      </trkpt>
      <trkpt lat="43.48988" lon="6.12958">
        <ele>197.7</ele>
        <time>2024-11-04T11:17:54Z</time>
      </trkpt>
      <trkpt lat="43.48982" lon="6.12968">
        <ele>197.3</ele>
        <time>2024-11-04T11:18:04Z</time>
      </trkpt>
      <trkpt lat="43.48977" lon="6.12978">
        <ele>196.8</ele>
        <time>2024-11-04T11:18:13Z</time>
      </trkpt>
      <trkpt lat="43.48972" lon="6.12988">
        <ele>196.3</ele>
        <time>2024-11-04T11:18:22Z</time>
      </trkpt>
      <trkpt lat="43.48966" lon="6.12998">
        <ele>195.9</ele>
        <time>2024-11-04T11:18:31Z</time>
      </trkpt>
      <trkpt lat="43.4896" lon="6.13009">
        <ele>195.3</ele>
        <time>2024-11-04T11:18:41Z</time>
      </trkpt>
      <trkpt lat="43.48955" lon="6.1302">
        <ele>194.5</ele>
        <time>2024-11-04T11:18:54Z</time>
      </trkpt>
      <trkpt lat="43.4895" lon="6.13032">
        <ele>194</ele>
        <time>2024-11-04T11:19:04Z</time>
      </trkpt>
      <trkpt lat="43.48944" lon="6.13043">
        <ele>193.5</ele>
        <time>2024-11-04T11:19:14Z</time>
      </trkpt>
      <trkpt lat="43.48938" lon="6.13053">
        <ele>193</ele>
        <time>2024-11-04T11:19:26Z</time>
      </trkpt>
      <trkpt lat="43.48933" lon="6.13064">
        <ele>192.1</ele>
        <time>2024-11-04T11:19:37Z</time>
      </trkpt>
      <trkpt lat="43.48928" lon="6.13074">
        <ele>191.2</ele>
        <time>2024-11-04T11:19:50Z</time>
      </trkpt>
      <trkpt lat="43.48923" lon="6.13085">
        <ele>190.7</ele>
        <time>2024-11-04T11:20:00Z</time>
      </trkpt>
      <trkpt lat="43.48918" lon="6.13095">
        <ele>189.8</ele>
        <time>2024-11-04T11:20:18Z</time>
      </trkpt>
      <trkpt lat="43.48911" lon="6.13106">
        <ele>189.4</ele>
        <time>2024-11-04T11:20:29Z</time>
      </trkpt>
      <trkpt lat="43.48906" lon="6.13116">
        <ele>189</ele>
        <time>2024-11-04T11:20:39Z</time>
      </trkpt>
      <trkpt lat="43.48899" lon="6.13126">
        <ele>188.4</ele>
        <time>2024-11-04T11:20:49Z</time>
      </trkpt>
      <trkpt lat="43.48894" lon="6.13135">
        <ele>188</ele>
        <time>2024-11-04T11:20:59Z</time>
      </trkpt>
      <trkpt lat="43.48888" lon="6.13146">
        <ele>187</ele>
        <time>2024-11-04T11:21:09Z</time>
      </trkpt>
      <trkpt lat="43.48882" lon="6.13156">
        <ele>187</ele>
        <time>2024-11-04T11:21:19Z</time>
      </trkpt>
      <trkpt lat="43.48875" lon="6.13166">
        <ele>186.9</ele>
        <time>2024-11-04T11:21:29Z</time>
      </trkpt>
      <trkpt lat="43.4887" lon="6.13177">
        <ele>186.5</ele>
        <time>2024-11-04T11:21:39Z</time>
      </trkpt>
      <trkpt lat="43.48864" lon="6.13187">
        <ele>185.7</ele>
        <time>2024-11-04T11:21:49Z</time>
      </trkpt>
      <trkpt lat="43.48857" lon="6.13196">
        <ele>186.5</ele>
        <time>2024-11-04T11:21:59Z</time>
      </trkpt>
      <trkpt lat="43.4885" lon="6.13205">
        <ele>185.7</ele>
        <time>2024-11-04T11:22:08Z</time>
      </trkpt>
      <trkpt lat="43.48845" lon="6.13215">
        <ele>185.5</ele>
        <time>2024-11-04T11:22:18Z</time>
      </trkpt>
      <trkpt lat="43.48839" lon="6.13226">
        <ele>185.3</ele>
        <time>2024-11-04T11:22:28Z</time>
      </trkpt>
      <trkpt lat="43.48832" lon="6.13236">
        <ele>184.9</ele>
        <time>2024-11-04T11:22:39Z</time>
      </trkpt>
      <trkpt lat="43.48827" lon="6.13246">
        <ele>184.7</ele>
        <time>2024-11-04T11:22:49Z</time>
      </trkpt>
      <trkpt lat="43.4882" lon="6.13257">
        <ele>184.4</ele>
        <time>2024-11-04T11:22:59Z</time>
      </trkpt>
      <trkpt lat="43.48814" lon="6.13267">
        <ele>184.2</ele>
        <time>2024-11-04T11:23:09Z</time>
      </trkpt>
      <trkpt lat="43.48808" lon="6.13276">
        <ele>184.1</ele>
        <time>2024-11-04T11:23:18Z</time>
      </trkpt>
      <trkpt lat="43.48802" lon="6.13286">
        <ele>183.6</ele>
        <time>2024-11-04T11:23:27Z</time>
      </trkpt>
      <trkpt lat="43.48796" lon="6.13295">
        <ele>183.4</ele>
        <time>2024-11-04T11:23:36Z</time>
      </trkpt>
      <trkpt lat="43.48789" lon="6.13304">
        <ele>183.3</ele>
        <time>2024-11-04T11:23:46Z</time>
      </trkpt>
      <trkpt lat="43.48782" lon="6.13312">
        <ele>183.1</ele>
        <time>2024-11-04T11:23:55Z</time>
      </trkpt>
      <trkpt lat="43.48773" lon="6.1332">
        <ele>182.8</ele>
        <time>2024-11-04T11:24:05Z</time>
      </trkpt>
      <trkpt lat="43.48765" lon="6.13327">
        <ele>182.2</ele>
        <time>2024-11-04T11:24:15Z</time>
      </trkpt>
      <trkpt lat="43.48757" lon="6.13333">
        <ele>181.7</ele>
        <time>2024-11-04T11:24:24Z</time>
      </trkpt>
      <trkpt lat="43.48749" lon="6.13338">
        <ele>181.8</ele>
        <time>2024-11-04T11:24:33Z</time>
      </trkpt>
      <trkpt lat="43.4874" lon="6.13343">
        <ele>181.3</ele>
        <time>2024-11-04T11:24:42Z</time>
      </trkpt>
      <trkpt lat="43.48731" lon="6.13347">
        <ele>181.1</ele>
        <time>2024-11-04T11:24:52Z</time>
      </trkpt>
      <trkpt lat="43.48722" lon="6.1335">
        <ele>180.8</ele>
        <time>2024-11-04T11:25:02Z</time>
      </trkpt>
      <trkpt lat="43.48713" lon="6.13353">
        <ele>180.6</ele>
        <time>2024-11-04T11:25:11Z</time>
      </trkpt>
      <trkpt lat="43.48705" lon="6.13358">
        <ele>180.3</ele>
        <time>2024-11-04T11:25:21Z</time>
      </trkpt>
      <trkpt lat="43.48696" lon="6.13361">
        <ele>180</ele>
        <time>2024-11-04T11:25:31Z</time>
      </trkpt>
      <trkpt lat="43.48687" lon="6.13365">
        <ele>179.5</ele>
        <time>2024-11-04T11:25:42Z</time>
      </trkpt>
      <trkpt lat="43.48678" lon="6.1337">
        <ele>179.1</ele>
        <time>2024-11-04T11:25:52Z</time>
      </trkpt>
      <trkpt lat="43.48671" lon="6.13378">
        <ele>178.7</ele>
        <time>2024-11-04T11:26:02Z</time>
      </trkpt>
      <trkpt lat="43.48662" lon="6.13377">
        <ele>178</ele>
        <time>2024-11-04T11:26:49Z</time>
      </trkpt>
      <trkpt lat="43.48654" lon="6.13383">
        <ele>177.7</ele>
        <time>2024-11-04T11:27:01Z</time>
      </trkpt>
      <trkpt lat="43.48646" lon="6.13391">
        <ele>177.5</ele>
        <time>2024-11-04T11:27:11Z</time>
      </trkpt>
      <trkpt lat="43.48639" lon="6.13399">
        <ele>177.1</ele>
        <time>2024-11-04T11:27:20Z</time>
      </trkpt>
      <trkpt lat="43.48634" lon="6.13411">
        <ele>176.8</ele>
        <time>2024-11-04T11:27:28Z</time>
      </trkpt>
      <trkpt lat="43.48631" lon="6.13424">
        <ele>176.7</ele>
        <time>2024-11-04T11:27:36Z</time>
      </trkpt>
      <trkpt lat="43.48635" lon="6.13412">
        <ele>176.6</ele>
        <time>2024-11-04T11:28:05Z</time>
      </trkpt>
      <trkpt lat="43.4864" lon="6.13402">
        <ele>176.8</ele>
        <time>2024-11-04T11:28:14Z</time>
      </trkpt>
      <trkpt lat="43.48647" lon="6.13392">
        <ele>176.9</ele>
        <time>2024-11-04T11:28:24Z</time>
      </trkpt>
      <trkpt lat="43.48655" lon="6.13386">
        <ele>177.1</ele>
        <time>2024-11-04T11:28:33Z</time>
      </trkpt>
      <trkpt lat="43.48664" lon="6.13382">
        <ele>177.3</ele>
        <time>2024-11-04T11:28:45Z</time>
      </trkpt>
      <trkpt lat="43.48654" lon="6.13382">
        <ele>177</ele>
        <time>2024-11-04T11:29:39Z</time>
      </trkpt>
      <trkpt lat="43.48663" lon="6.13388">
        <ele>176.8</ele>
        <time>2024-11-04T11:30:10Z</time>
      </trkpt>
      <trkpt lat="43.48654" lon="6.13382">
        <ele>176.2</ele>
        <time>2024-11-04T11:31:24Z</time>
      </trkpt>
      <trkpt lat="43.48663" lon="6.13378">
        <ele>176.5</ele>
        <time>2024-11-04T12:23:39Z</time>
      </trkpt>
      <trkpt lat="43.48654" lon="6.13381">
        <ele>176.5</ele>
        <time>2024-11-04T12:26:01Z</time>
      </trkpt>
      <trkpt lat="43.48646" lon="6.13389">
        <ele>176.3</ele>
        <time>2024-11-04T12:26:31Z</time>
      </trkpt>
      <trkpt lat="43.48652" lon="6.13398">
        <ele>176.3</ele>
        <time>2024-11-04T12:27:29Z</time>
      </trkpt>
      <trkpt lat="43.48649" lon="6.13386">
        <ele>176.5</ele>
        <time>2024-11-04T12:28:25Z</time>
      </trkpt>
      <trkpt lat="43.48642" lon="6.13394">
        <ele>176.3</ele>
        <time>2024-11-04T12:31:11Z</time>
      </trkpt>
      <trkpt lat="43.48635" lon="6.13404">
        <ele>176</ele>
        <time>2024-11-04T12:32:10Z</time>
      </trkpt>
      <trkpt lat="43.48631" lon="6.13416">
        <ele>175.9</ele>
        <time>2024-11-04T12:32:20Z</time>
      </trkpt>
      <trkpt lat="43.48628" lon="6.13428">
        <ele>175.8</ele>
        <time>2024-11-04T12:32:29Z</time>
      </trkpt>
      <trkpt lat="43.48628" lon="6.13441">
        <ele>175.5</ele>
        <time>2024-11-04T12:32:56Z</time>
      </trkpt>
      <trkpt lat="43.48624" lon="6.13453">
        <ele>175.5</ele>
        <time>2024-11-04T12:33:09Z</time>
      </trkpt>
      <trkpt lat="43.48622" lon="6.13466">
        <ele>175.4</ele>
        <time>2024-11-04T12:33:22Z</time>
      </trkpt>
      <trkpt lat="43.48619" lon="6.13478">
        <ele>175.2</ele>
        <time>2024-11-04T12:33:39Z</time>
      </trkpt>
      <trkpt lat="43.48615" lon="6.1349">
        <ele>175</ele>
        <time>2024-11-04T12:33:49Z</time>
      </trkpt>
      <trkpt lat="43.48611" lon="6.13502">
        <ele>174.9</ele>
        <time>2024-11-04T12:34:01Z</time>
      </trkpt>
      <trkpt lat="43.48607" lon="6.13514">
        <ele>174.7</ele>
        <time>2024-11-04T12:34:13Z</time>
      </trkpt>
      <trkpt lat="43.48602" lon="6.13525">
        <ele>174.7</ele>
        <time>2024-11-04T12:34:24Z</time>
      </trkpt>
      <trkpt lat="43.48596" lon="6.13535">
        <ele>174.5</ele>
        <time>2024-11-04T12:34:34Z</time>
      </trkpt>
      <trkpt lat="43.48591" lon="6.13546">
        <ele>174.2</ele>
        <time>2024-11-04T12:34:44Z</time>
      </trkpt>
      <trkpt lat="43.48586" lon="6.13557">
        <ele>174</ele>
        <time>2024-11-04T12:34:55Z</time>
      </trkpt>
      <trkpt lat="43.48579" lon="6.13567">
        <ele>173.9</ele>
        <time>2024-11-04T12:35:05Z</time>
      </trkpt>
      <trkpt lat="43.48574" lon="6.13578">
        <ele>173.7</ele>
        <time>2024-11-04T12:35:16Z</time>
      </trkpt>
      <trkpt lat="43.48568" lon="6.13589">
        <ele>173.7</ele>
        <time>2024-11-04T12:35:26Z</time>
      </trkpt>
      <trkpt lat="43.48562" lon="6.13599">
        <ele>173.7</ele>
        <time>2024-11-04T12:35:36Z</time>
      </trkpt>
      <trkpt lat="43.48558" lon="6.1361">
        <ele>173.4</ele>
        <time>2024-11-04T12:35:46Z</time>
      </trkpt>
      <trkpt lat="43.48554" lon="6.13621">
        <ele>173.4</ele>
        <time>2024-11-04T12:35:56Z</time>
      </trkpt>
      <trkpt lat="43.48551" lon="6.13633">
        <ele>173.4</ele>
        <time>2024-11-04T12:36:06Z</time>
      </trkpt>
      <trkpt lat="43.48548" lon="6.13646">
        <ele>173.3</ele>
        <time>2024-11-04T12:36:16Z</time>
      </trkpt>
      <trkpt lat="43.48546" lon="6.13658">
        <ele>173.2</ele>
        <time>2024-11-04T12:36:26Z</time>
      </trkpt>
      <trkpt lat="43.48545" lon="6.13672">
        <ele>173.2</ele>
        <time>2024-11-04T12:36:37Z</time>
      </trkpt>
      <trkpt lat="43.48546" lon="6.13684">
        <ele>173.2</ele>
        <time>2024-11-04T12:36:48Z</time>
      </trkpt>
      <trkpt lat="43.48547" lon="6.13697">
        <ele>173.2</ele>
        <time>2024-11-04T12:36:59Z</time>
      </trkpt>
      <trkpt lat="43.48547" lon="6.13711">
        <ele>173.2</ele>
        <time>2024-11-04T12:37:09Z</time>
      </trkpt>
      <trkpt lat="43.48547" lon="6.13723">
        <ele>173.1</ele>
        <time>2024-11-04T12:37:19Z</time>
      </trkpt>
      <trkpt lat="43.48547" lon="6.13737">
        <ele>172.9</ele>
        <time>2024-11-04T12:37:30Z</time>
      </trkpt>
      <trkpt lat="43.48545" lon="6.13749">
        <ele>172.9</ele>
        <time>2024-11-04T12:37:41Z</time>
      </trkpt>
      <trkpt lat="43.48541" lon="6.13762">
        <ele>172.8</ele>
        <time>2024-11-04T12:37:52Z</time>
      </trkpt>
      <trkpt lat="43.48537" lon="6.13773">
        <ele>172.5</ele>
        <time>2024-11-04T12:38:22Z</time>
      </trkpt>
      <trkpt lat="43.48542" lon="6.13762">
        <ele>172.7</ele>
        <time>2024-11-04T12:40:46Z</time>
      </trkpt>
      <trkpt lat="43.4854" lon="6.13776">
        <ele>173</ele>
        <time>2024-11-04T12:41:16Z</time>
      </trkpt>
      <trkpt lat="43.48534" lon="6.13786">
        <ele>172.8</ele>
        <time>2024-11-04T12:41:32Z</time>
      </trkpt>
      <trkpt lat="43.48531" lon="6.13799">
        <ele>172.8</ele>
        <time>2024-11-04T12:41:42Z</time>
      </trkpt>
      <trkpt lat="43.48529" lon="6.13811">
        <ele>172.4</ele>
        <time>2024-11-04T12:41:53Z</time>
      </trkpt>
      <trkpt lat="43.48525" lon="6.13823">
        <ele>172.2</ele>
        <time>2024-11-04T12:42:03Z</time>
      </trkpt>
      <trkpt lat="43.48522" lon="6.13836">
        <ele>172.1</ele>
        <time>2024-11-04T12:42:13Z</time>
      </trkpt>
      <trkpt lat="43.48519" lon="6.1385">
        <ele>172.3</ele>
        <time>2024-11-04T12:42:21Z</time>
      </trkpt>
      <trkpt lat="43.48519" lon="6.13863">
        <ele>172.6</ele>
        <time>2024-11-04T12:42:29Z</time>
      </trkpt>
      <trkpt lat="43.48519" lon="6.13877">
        <ele>172.5</ele>
        <time>2024-11-04T12:42:39Z</time>
      </trkpt>
      <trkpt lat="43.48517" lon="6.1389">
        <ele>172.4</ele>
        <time>2024-11-04T12:42:48Z</time>
      </trkpt>
      <trkpt lat="43.48516" lon="6.13904">
        <ele>172.4</ele>
        <time>2024-11-04T12:42:57Z</time>
      </trkpt>
      <trkpt lat="43.48516" lon="6.13916">
        <ele>172.6</ele>
        <time>2024-11-04T12:43:06Z</time>
      </trkpt>
      <trkpt lat="43.48515" lon="6.1393">
        <ele>173.1</ele>
        <time>2024-11-04T12:43:16Z</time>
      </trkpt>
      <trkpt lat="43.48515" lon="6.13942">
        <ele>173.1</ele>
        <time>2024-11-04T12:43:26Z</time>
      </trkpt>
      <trkpt lat="43.48509" lon="6.13953">
        <ele>173.4</ele>
        <time>2024-11-04T12:43:38Z</time>
      </trkpt>
      <trkpt lat="43.48504" lon="6.13964">
        <ele>173.4</ele>
        <time>2024-11-04T12:44:51Z</time>
      </trkpt>
      <trkpt lat="43.48498" lon="6.13975">
        <ele>173.2</ele>
        <time>2024-11-04T12:45:02Z</time>
      </trkpt>
      <trkpt lat="43.48492" lon="6.13984">
        <ele>172.8</ele>
        <time>2024-11-04T12:45:15Z</time>
      </trkpt>
      <trkpt lat="43.48487" lon="6.13995">
        <ele>172.8</ele>
        <time>2024-11-04T12:45:26Z</time>
      </trkpt>
      <trkpt lat="43.48482" lon="6.14005">
        <ele>172.7</ele>
        <time>2024-11-04T12:45:36Z</time>
      </trkpt>
      <trkpt lat="43.48476" lon="6.14016">
        <ele>172.7</ele>
        <time>2024-11-04T12:45:47Z</time>
      </trkpt>
      <trkpt lat="43.4847" lon="6.14026">
        <ele>172.7</ele>
        <time>2024-11-04T12:45:57Z</time>
      </trkpt>
      <trkpt lat="43.48463" lon="6.14036">
        <ele>172.7</ele>
        <time>2024-11-04T12:46:07Z</time>
      </trkpt>
      <trkpt lat="43.48458" lon="6.14047">
        <ele>172.4</ele>
        <time>2024-11-04T12:46:17Z</time>
      </trkpt>
      <trkpt lat="43.48453" lon="6.14058">
        <ele>172.2</ele>
        <time>2024-11-04T12:46:27Z</time>
      </trkpt>
      <trkpt lat="43.48447" lon="6.1407">
        <ele>172.1</ele>
        <time>2024-11-04T12:46:37Z</time>
      </trkpt>
      <trkpt lat="43.48442" lon="6.14081">
        <ele>172.1</ele>
        <time>2024-11-04T12:46:47Z</time>
      </trkpt>
      <trkpt lat="43.48438" lon="6.14091">
        <ele>172.1</ele>
        <time>2024-11-04T12:46:57Z</time>
      </trkpt>
      <trkpt lat="43.48433" lon="6.14102">
        <ele>172.1</ele>
        <time>2024-11-04T12:47:07Z</time>
      </trkpt>
      <trkpt lat="43.48427" lon="6.14112">
        <ele>172</ele>
        <time>2024-11-04T12:47:17Z</time>
      </trkpt>
      <trkpt lat="43.4842" lon="6.14119">
        <ele>172.2</ele>
        <time>2024-11-04T12:48:53Z</time>
      </trkpt>
      <trkpt lat="43.48413" lon="6.1411">
        <ele>172.2</ele>
        <time>2024-11-04T12:50:52Z</time>
      </trkpt>
      <trkpt lat="43.48407" lon="6.14101">
        <ele>172</ele>
        <time>2024-11-04T12:51:17Z</time>
      </trkpt>
      <trkpt lat="43.484" lon="6.14091">
        <ele>172.1</ele>
        <time>2024-11-04T12:51:28Z</time>
      </trkpt>
      <trkpt lat="43.48393" lon="6.14081">
        <ele>171.3</ele>
        <time>2024-11-04T12:51:39Z</time>
      </trkpt>
      <trkpt lat="43.48387" lon="6.14072">
        <ele>171.9</ele>
        <time>2024-11-04T12:52:20Z</time>
      </trkpt>
      <trkpt lat="43.48381" lon="6.14063">
        <ele>171.7</ele>
        <time>2024-11-04T12:52:31Z</time>
      </trkpt>
      <trkpt lat="43.48376" lon="6.14052">
        <ele>170.9</ele>
        <time>2024-11-04T12:53:23Z</time>
      </trkpt>
      <trkpt lat="43.48369" lon="6.14042">
        <ele>170.6</ele>
        <time>2024-11-04T12:53:33Z</time>
      </trkpt>
      <trkpt lat="43.48362" lon="6.14032">
        <ele>170.7</ele>
        <time>2024-11-04T12:53:42Z</time>
      </trkpt>
      <trkpt lat="43.48357" lon="6.14022">
        <ele>170</ele>
        <time>2024-11-04T12:53:51Z</time>
      </trkpt>
      <trkpt lat="43.4835" lon="6.14013">
        <ele>169.8</ele>
        <time>2024-11-04T12:54:02Z</time>
      </trkpt>
      <trkpt lat="43.48344" lon="6.14003">
        <ele>169.6</ele>
        <time>2024-11-04T12:54:11Z</time>
      </trkpt>
      <trkpt lat="43.48338" lon="6.13992">
        <ele>169.4</ele>
        <time>2024-11-04T12:54:21Z</time>
      </trkpt>
      <trkpt lat="43.48333" lon="6.13982">
        <ele>169.4</ele>
        <time>2024-11-04T12:54:32Z</time>
      </trkpt>
      <trkpt lat="43.48328" lon="6.13971">
        <ele>169.2</ele>
        <time>2024-11-04T12:54:44Z</time>
      </trkpt>
      <trkpt lat="43.48322" lon="6.1396">
        <ele>169</ele>
        <time>2024-11-04T12:54:55Z</time>
      </trkpt>
      <trkpt lat="43.48318" lon="6.13948">
        <ele>169.1</ele>
        <time>2024-11-04T12:55:07Z</time>
      </trkpt>
      <trkpt lat="43.48313" lon="6.13937">
        <ele>169.1</ele>
        <time>2024-11-04T12:55:17Z</time>
      </trkpt>
      <trkpt lat="43.48309" lon="6.13925">
        <ele>168.6</ele>
        <time>2024-11-04T12:55:29Z</time>
      </trkpt>
      <trkpt lat="43.48303" lon="6.13915">
        <ele>168</ele>
        <time>2024-11-04T12:55:50Z</time>
      </trkpt>
      <trkpt lat="43.48298" lon="6.13904">
        <ele>167.5</ele>
        <time>2024-11-04T12:56:09Z</time>
      </trkpt>
      <trkpt lat="43.48293" lon="6.13892">
        <ele>167.2</ele>
        <time>2024-11-04T12:56:38Z</time>
      </trkpt>
      <trkpt lat="43.48288" lon="6.13882">
        <ele>167.3</ele>
        <time>2024-11-04T12:56:52Z</time>
      </trkpt>
      <trkpt lat="43.48282" lon="6.13873">
        <ele>167.5</ele>
        <time>2024-11-04T12:57:14Z</time>
      </trkpt>
      <trkpt lat="43.48279" lon="6.13861">
        <ele>167.6</ele>
        <time>2024-11-04T12:57:48Z</time>
      </trkpt>
      <trkpt lat="43.48274" lon="6.1385">
        <ele>167.7</ele>
        <time>2024-11-04T12:58:04Z</time>
      </trkpt>
      <trkpt lat="43.48268" lon="6.1384">
        <ele>167.4</ele>
        <time>2024-11-04T12:58:31Z</time>
      </trkpt>
      <trkpt lat="43.48261" lon="6.13832">
        <ele>167.3</ele>
        <time>2024-11-04T12:58:41Z</time>
      </trkpt>
      <trkpt lat="43.48255" lon="6.13821">
        <ele>167</ele>
        <time>2024-11-04T12:58:52Z</time>
      </trkpt>
      <trkpt lat="43.48246" lon="6.13824">
        <ele>166.9</ele>
        <time>2024-11-04T12:59:05Z</time>
      </trkpt>
      <trkpt lat="43.48238" lon="6.13829">
        <ele>166.6</ele>
        <time>2024-11-04T12:59:21Z</time>
      </trkpt>
      <trkpt lat="43.48228" lon="6.13833">
        <ele>166.5</ele>
        <time>2024-11-04T12:59:36Z</time>
      </trkpt>
      <trkpt lat="43.48219" lon="6.13837">
        <ele>166.3</ele>
        <time>2024-11-04T12:59:48Z</time>
      </trkpt>
      <trkpt lat="43.48209" lon="6.13842">
        <ele>166.5</ele>
        <time>2024-11-04T12:59:59Z</time>
      </trkpt>
      <trkpt lat="43.482" lon="6.13847">
        <ele>166.6</ele>
        <time>2024-11-04T13:00:10Z</time>
      </trkpt>
      <trkpt lat="43.48191" lon="6.13852">
        <ele>166.9</ele>
        <time>2024-11-04T13:00:21Z</time>
      </trkpt>
      <trkpt lat="43.48182" lon="6.13857">
        <ele>166.9</ele>
        <time>2024-11-04T13:00:32Z</time>
      </trkpt>
      <trkpt lat="43.48173" lon="6.13862">
        <ele>166.6</ele>
        <time>2024-11-04T13:00:42Z</time>
      </trkpt>
      <trkpt lat="43.48164" lon="6.13866">
        <ele>166.4</ele>
        <time>2024-11-04T13:00:51Z</time>
      </trkpt>
      <trkpt lat="43.48156" lon="6.13872">
        <ele>166.2</ele>
        <time>2024-11-04T13:01:01Z</time>
      </trkpt>
      <trkpt lat="43.48147" lon="6.13876">
        <ele>166.2</ele>
        <time>2024-11-04T13:01:10Z</time>
      </trkpt>
      <trkpt lat="43.48139" lon="6.13881">
        <ele>166.5</ele>
        <time>2024-11-04T13:01:20Z</time>
      </trkpt>
      <trkpt lat="43.4813" lon="6.13887">
        <ele>166.1</ele>
        <time>2024-11-04T13:01:30Z</time>
      </trkpt>
      <trkpt lat="43.48125" lon="6.13898">
        <ele>166</ele>
        <time>2024-11-04T13:01:42Z</time>
      </trkpt>
      <trkpt lat="43.48117" lon="6.13904">
        <ele>165.6</ele>
        <time>2024-11-04T13:01:52Z</time>
      </trkpt>
      <trkpt lat="43.48108" lon="6.13909">
        <ele>165.3</ele>
        <time>2024-11-04T13:02:05Z</time>
      </trkpt>
      <trkpt lat="43.481" lon="6.13915">
        <ele>164.9</ele>
        <time>2024-11-04T13:02:16Z</time>
      </trkpt>
      <trkpt lat="43.48091" lon="6.13918">
        <ele>164.9</ele>
        <time>2024-11-04T13:02:26Z</time>
      </trkpt>
      <trkpt lat="43.48082" lon="6.13924">
        <ele>164.7</ele>
        <time>2024-11-04T13:02:37Z</time>
      </trkpt>
      <trkpt lat="43.48072" lon="6.13928">
        <ele>164.6</ele>
        <time>2024-11-04T13:02:58Z</time>
      </trkpt>
      <trkpt lat="43.48064" lon="6.13933">
        <ele>164.5</ele>
        <time>2024-11-04T13:03:10Z</time>
      </trkpt>
      <trkpt lat="43.48055" lon="6.13937">
        <ele>164.2</ele>
        <time>2024-11-04T13:03:30Z</time>
      </trkpt>
      <trkpt lat="43.48046" lon="6.13941">
        <ele>163.9</ele>
        <time>2024-11-04T13:03:43Z</time>
      </trkpt>
      <trkpt lat="43.48038" lon="6.13946">
        <ele>163.9</ele>
        <time>2024-11-04T13:03:53Z</time>
      </trkpt>
      <trkpt lat="43.48029" lon="6.13951">
        <ele>163.4</ele>
        <time>2024-11-04T13:04:06Z</time>
      </trkpt>
      <trkpt lat="43.4802" lon="6.13956">
        <ele>163.3</ele>
        <time>2024-11-04T13:04:18Z</time>
      </trkpt>
      <trkpt lat="43.48011" lon="6.13961">
        <ele>163.2</ele>
        <time>2024-11-04T13:04:32Z</time>
      </trkpt>
      <trkpt lat="43.48002" lon="6.13961">
        <ele>163.2</ele>
        <time>2024-11-04T13:04:43Z</time>
      </trkpt>
      <trkpt lat="43.47993" lon="6.13963">
        <ele>163.4</ele>
        <time>2024-11-04T13:04:53Z</time>
      </trkpt>
      <trkpt lat="43.47983" lon="6.13966">
        <ele>163.2</ele>
        <time>2024-11-04T13:05:03Z</time>
      </trkpt>
      <trkpt lat="43.47975" lon="6.13971">
        <ele>162.8</ele>
        <time>2024-11-04T13:05:17Z</time>
      </trkpt>
      <trkpt lat="43.47966" lon="6.13973">
        <ele>162.6</ele>
        <time>2024-11-04T13:05:27Z</time>
      </trkpt>
      <trkpt lat="43.47956" lon="6.13976">
        <ele>162.6</ele>
        <time>2024-11-04T13:05:37Z</time>
      </trkpt>
      <trkpt lat="43.47947" lon="6.13979">
        <ele>162.4</ele>
        <time>2024-11-04T13:05:48Z</time>
      </trkpt>
      <trkpt lat="43.47939" lon="6.13986">
        <ele>162.2</ele>
        <time>2024-11-04T13:05:58Z</time>
      </trkpt>
      <trkpt lat="43.47931" lon="6.13993">
        <ele>161.9</ele>
        <time>2024-11-04T13:06:10Z</time>
      </trkpt>
      <trkpt lat="43.47924" lon="6.14001">
        <ele>161.5</ele>
        <time>2024-11-04T13:06:22Z</time>
      </trkpt>
      <trkpt lat="43.47917" lon="6.1401">
        <ele>161.4</ele>
        <time>2024-11-04T13:06:32Z</time>
      </trkpt>
      <trkpt lat="43.47909" lon="6.14018">
        <ele>161.2</ele>
        <time>2024-11-04T13:06:42Z</time>
      </trkpt>
      <trkpt lat="43.47902" lon="6.14027">
        <ele>160.9</ele>
        <time>2024-11-04T13:06:52Z</time>
      </trkpt>
      <trkpt lat="43.47895" lon="6.14037">
        <ele>160.5</ele>
        <time>2024-11-04T13:07:04Z</time>
      </trkpt>
      <trkpt lat="43.47889" lon="6.14046">
        <ele>160.2</ele>
        <time>2024-11-04T13:07:14Z</time>
      </trkpt>
      <trkpt lat="43.47882" lon="6.14054">
        <ele>160.1</ele>
        <time>2024-11-04T13:07:25Z</time>
      </trkpt>
      <trkpt lat="43.47874" lon="6.14062">
        <ele>159.8</ele>
        <time>2024-11-04T13:07:36Z</time>
      </trkpt>
      <trkpt lat="43.47865" lon="6.14066">
        <ele>159.6</ele>
        <time>2024-11-04T13:07:51Z</time>
      </trkpt>
      <trkpt lat="43.47856" lon="6.14068">
        <ele>159.4</ele>
        <time>2024-11-04T13:08:03Z</time>
      </trkpt>
      <trkpt lat="43.47846" lon="6.14069">
        <ele>159.2</ele>
        <time>2024-11-04T13:08:22Z</time>
      </trkpt>
      <trkpt lat="43.47837" lon="6.14072">
        <ele>159.4</ele>
        <time>2024-11-04T13:08:34Z</time>
      </trkpt>
      <trkpt lat="43.47827" lon="6.14075">
        <ele>158.9</ele>
        <time>2024-11-04T13:08:49Z</time>
      </trkpt>
      <trkpt lat="43.47818" lon="6.14074">
        <ele>158.7</ele>
        <time>2024-11-04T13:09:01Z</time>
      </trkpt>
      <trkpt lat="43.47808" lon="6.1407">
        <ele>158.6</ele>
        <time>2024-11-04T13:09:12Z</time>
      </trkpt>
      <trkpt lat="43.47799" lon="6.1407">
        <ele>158.5</ele>
        <time>2024-11-04T13:09:21Z</time>
      </trkpt>
      <trkpt lat="43.47789" lon="6.14069">
        <ele>158.4</ele>
        <time>2024-11-04T13:09:32Z</time>
      </trkpt>
      <trkpt lat="43.4778" lon="6.14067">
        <ele>157.4</ele>
        <time>2024-11-04T13:10:28Z</time>
      </trkpt>
      <trkpt lat="43.47771" lon="6.14066">
        <ele>157.4</ele>
        <time>2024-11-04T13:10:37Z</time>
      </trkpt>
      <trkpt lat="43.47761" lon="6.14066">
        <ele>156.9</ele>
        <time>2024-11-04T13:10:49Z</time>
      </trkpt>
      <trkpt lat="43.47751" lon="6.14068">
        <ele>156.5</ele>
        <time>2024-11-04T13:11:08Z</time>
      </trkpt>
      <trkpt lat="43.47742" lon="6.14066">
        <ele>156.2</ele>
        <time>2024-11-04T13:11:22Z</time>
      </trkpt>
      <trkpt lat="43.47732" lon="6.14064">
        <ele>156</ele>
        <time>2024-11-04T13:11:32Z</time>
      </trkpt>
      <trkpt lat="43.47723" lon="6.14062">
        <ele>154.9</ele>
        <time>2024-11-04T13:11:42Z</time>
      </trkpt>
      <trkpt lat="43.47713" lon="6.14061">
        <ele>155.1</ele>
        <time>2024-11-04T13:11:52Z</time>
      </trkpt>
      <trkpt lat="43.47704" lon="6.14061">
        <ele>154.1</ele>
        <time>2024-11-04T13:12:06Z</time>
      </trkpt>
      <trkpt lat="43.47695" lon="6.14065">
        <ele>153.8</ele>
        <time>2024-11-04T13:12:25Z</time>
      </trkpt>
      <trkpt lat="43.47691" lon="6.14077">
        <ele>153.6</ele>
        <time>2024-11-04T13:12:35Z</time>
      </trkpt>
      <trkpt lat="43.47683" lon="6.14086">
        <ele>152.9</ele>
        <time>2024-11-04T13:12:57Z</time>
      </trkpt>
      <trkpt lat="43.47676" lon="6.14094">
        <ele>152.7</ele>
        <time>2024-11-04T13:13:07Z</time>
      </trkpt>
      <trkpt lat="43.47668" lon="6.141">
        <ele>152.3</ele>
        <time>2024-11-04T13:13:18Z</time>
      </trkpt>
      <trkpt lat="43.4766" lon="6.14107">
        <ele>151.8</ele>
        <time>2024-11-04T13:13:32Z</time>
      </trkpt>
      <trkpt lat="43.47651" lon="6.14112">
        <ele>151.3</ele>
        <time>2024-11-04T13:13:42Z</time>
      </trkpt>
      <trkpt lat="43.47643" lon="6.14115">
        <ele>151</ele>
        <time>2024-11-04T13:13:53Z</time>
      </trkpt>
      <trkpt lat="43.47634" lon="6.14117">
        <ele>150.8</ele>
        <time>2024-11-04T13:14:03Z</time>
      </trkpt>
      <trkpt lat="43.47624" lon="6.14117">
        <ele>150.3</ele>
        <time>2024-11-04T13:14:14Z</time>
      </trkpt>
      <trkpt lat="43.47615" lon="6.1412">
        <ele>149.9</ele>
        <time>2024-11-04T13:14:24Z</time>
      </trkpt>
      <trkpt lat="43.47607" lon="6.14128">
        <ele>149.8</ele>
        <time>2024-11-04T13:14:34Z</time>
      </trkpt>
      <trkpt lat="43.476" lon="6.14136">
        <ele>149.4</ele>
        <time>2024-11-04T13:14:44Z</time>
      </trkpt>
      <trkpt lat="43.47593" lon="6.14143">
        <ele>149.1</ele>
        <time>2024-11-04T13:14:54Z</time>
      </trkpt>
      <trkpt lat="43.47585" lon="6.1415">
        <ele>148.9</ele>
        <time>2024-11-04T13:15:04Z</time>
      </trkpt>
      <trkpt lat="43.47578" lon="6.14157">
        <ele>148.7</ele>
        <time>2024-11-04T13:15:13Z</time>
      </trkpt>
      <trkpt lat="43.4757" lon="6.14164">
        <ele>148.6</ele>
        <time>2024-11-04T13:15:23Z</time>
      </trkpt>
      <trkpt lat="43.47562" lon="6.14171">
        <ele>148.4</ele>
        <time>2024-11-04T13:15:33Z</time>
      </trkpt>
      <trkpt lat="43.47554" lon="6.14179">
        <ele>148.2</ele>
        <time>2024-11-04T13:15:45Z</time>
      </trkpt>
      <trkpt lat="43.47547" lon="6.14186">
        <ele>148.1</ele>
        <time>2024-11-04T13:15:55Z</time>
      </trkpt>
      <trkpt lat="43.47539" lon="6.14194">
        <ele>148.2</ele>
        <time>2024-11-04T13:16:05Z</time>
      </trkpt>
      <trkpt lat="43.47531" lon="6.14202">
        <ele>146.5</ele>
        <time>2024-11-04T13:16:14Z</time>
      </trkpt>
      <trkpt lat="43.47524" lon="6.1421">
        <ele>147.1</ele>
        <time>2024-11-04T13:16:24Z</time>
      </trkpt>
      <trkpt lat="43.47517" lon="6.14219">
        <ele>148</ele>
        <time>2024-11-04T13:16:34Z</time>
      </trkpt>
      <trkpt lat="43.47509" lon="6.14227">
        <ele>147.6</ele>
        <time>2024-11-04T13:16:45Z</time>
      </trkpt>
      <trkpt lat="43.47501" lon="6.14234">
        <ele>147.5</ele>
        <time>2024-11-04T13:16:55Z</time>
      </trkpt>
      <trkpt lat="43.47493" lon="6.14243">
        <ele>147.3</ele>
        <time>2024-11-04T13:17:04Z</time>
      </trkpt>
      <trkpt lat="43.47486" lon="6.14251">
        <ele>147</ele>
        <time>2024-11-04T13:17:15Z</time>
      </trkpt>
      <trkpt lat="43.47479" lon="6.14259">
        <ele>147.1</ele>
        <time>2024-11-04T13:17:25Z</time>
      </trkpt>
      <trkpt lat="43.47471" lon="6.14266">
        <ele>146.6</ele>
        <time>2024-11-04T13:17:36Z</time>
      </trkpt>
      <trkpt lat="43.47464" lon="6.14275">
        <ele>146.6</ele>
        <time>2024-11-04T13:17:46Z</time>
      </trkpt>
      <trkpt lat="43.47459" lon="6.14285">
        <ele>146.5</ele>
        <time>2024-11-04T13:17:57Z</time>
      </trkpt>
      <trkpt lat="43.47454" lon="6.14295">
        <ele>146</ele>
        <time>2024-11-04T13:18:07Z</time>
      </trkpt>
      <trkpt lat="43.47447" lon="6.14304">
        <ele>146</ele>
        <time>2024-11-04T13:18:39Z</time>
      </trkpt>
      <trkpt lat="43.4744" lon="6.14313">
        <ele>145.7</ele>
        <time>2024-11-04T13:18:50Z</time>
      </trkpt>
      <trkpt lat="43.47432" lon="6.1432">
        <ele>145.4</ele>
        <time>2024-11-04T13:19:00Z</time>
      </trkpt>
      <trkpt lat="43.47424" lon="6.14326">
        <ele>145.4</ele>
        <time>2024-11-04T13:19:10Z</time>
      </trkpt>
      <trkpt lat="43.47416" lon="6.14332">
        <ele>145.2</ele>
        <time>2024-11-04T13:19:20Z</time>
      </trkpt>
      <trkpt lat="43.47407" lon="6.14338">
        <ele>145.2</ele>
        <time>2024-11-04T13:19:30Z</time>
      </trkpt>
      <trkpt lat="43.47398" lon="6.14343">
        <ele>144.6</ele>
        <time>2024-11-04T13:19:45Z</time>
      </trkpt>
      <trkpt lat="43.4739" lon="6.14349">
        <ele>144.4</ele>
        <time>2024-11-04T13:19:55Z</time>
      </trkpt>
      <trkpt lat="43.4738" lon="6.14353">
        <ele>144</ele>
        <time>2024-11-04T13:20:15Z</time>
      </trkpt>
      <trkpt lat="43.47372" lon="6.1436">
        <ele>144</ele>
        <time>2024-11-04T13:20:26Z</time>
      </trkpt>
      <trkpt lat="43.47364" lon="6.14364">
        <ele>143.8</ele>
        <time>2024-11-04T13:20:46Z</time>
      </trkpt>
      <trkpt lat="43.47355" lon="6.14371">
        <ele>143.9</ele>
        <time>2024-11-04T13:20:58Z</time>
      </trkpt>
      <trkpt lat="43.47347" lon="6.14377">
        <ele>143.7</ele>
        <time>2024-11-04T13:21:09Z</time>
      </trkpt>
      <trkpt lat="43.47339" lon="6.14384">
        <ele>143</ele>
        <time>2024-11-04T13:21:20Z</time>
      </trkpt>
      <trkpt lat="43.47331" lon="6.14389">
        <ele>143.3</ele>
        <time>2024-11-04T13:21:30Z</time>
      </trkpt>
      <trkpt lat="43.47323" lon="6.14397">
        <ele>142.6</ele>
        <time>2024-11-04T13:21:41Z</time>
      </trkpt>
      <trkpt lat="43.47315" lon="6.14404">
        <ele>142.7</ele>
        <time>2024-11-04T13:21:52Z</time>
      </trkpt>
      <trkpt lat="43.47305" lon="6.14407">
        <ele>142.9</ele>
        <time>2024-11-04T13:22:02Z</time>
      </trkpt>
      <trkpt lat="43.47296" lon="6.14412">
        <ele>142.5</ele>
        <time>2024-11-04T13:22:11Z</time>
      </trkpt>
      <trkpt lat="43.47287" lon="6.14416">
        <ele>142.3</ele>
        <time>2024-11-04T13:22:20Z</time>
      </trkpt>
      <trkpt lat="43.47278" lon="6.1442">
        <ele>142.2</ele>
        <time>2024-11-04T13:22:32Z</time>
      </trkpt>
      <trkpt lat="43.47269" lon="6.14427">
        <ele>142.2</ele>
        <time>2024-11-04T13:22:42Z</time>
      </trkpt>
      <trkpt lat="43.47261" lon="6.14432">
        <ele>142.4</ele>
        <time>2024-11-04T13:22:52Z</time>
      </trkpt>
      <trkpt lat="43.47252" lon="6.14437">
        <ele>142.4</ele>
        <time>2024-11-04T13:23:02Z</time>
      </trkpt>
      <trkpt lat="43.47244" lon="6.14443">
        <ele>142.3</ele>
        <time>2024-11-04T13:23:13Z</time>
      </trkpt>
      <trkpt lat="43.47235" lon="6.14447">
        <ele>142.1</ele>
        <time>2024-11-04T13:23:24Z</time>
      </trkpt>
      <trkpt lat="43.47227" lon="6.14453">
        <ele>142.1</ele>
        <time>2024-11-04T13:23:33Z</time>
      </trkpt>
      <trkpt lat="43.47218" lon="6.14458">
        <ele>142</ele>
        <time>2024-11-04T13:23:43Z</time>
      </trkpt>
      <trkpt lat="43.47209" lon="6.14462">
        <ele>142</ele>
        <time>2024-11-04T13:23:52Z</time>
      </trkpt>
      <trkpt lat="43.472" lon="6.14467">
        <ele>141.8</ele>
        <time>2024-11-04T13:24:03Z</time>
      </trkpt>
      <trkpt lat="43.47191" lon="6.14472">
        <ele>142.4</ele>
        <time>2024-11-04T13:24:14Z</time>
      </trkpt>
      <trkpt lat="43.47183" lon="6.14478">
        <ele>142.3</ele>
        <time>2024-11-04T13:24:25Z</time>
      </trkpt>
      <trkpt lat="43.47175" lon="6.14484">
        <ele>141.7</ele>
        <time>2024-11-04T13:24:35Z</time>
      </trkpt>
      <trkpt lat="43.47166" lon="6.14489">
        <ele>142.4</ele>
        <time>2024-11-04T13:24:45Z</time>
      </trkpt>
      <trkpt lat="43.47158" lon="6.14495">
        <ele>142.4</ele>
        <time>2024-11-04T13:24:55Z</time>
      </trkpt>
      <trkpt lat="43.4715" lon="6.14501">
        <ele>141.8</ele>
        <time>2024-11-04T13:25:06Z</time>
      </trkpt>
      <trkpt lat="43.47141" lon="6.14507">
        <ele>141.7</ele>
        <time>2024-11-04T13:25:17Z</time>
      </trkpt>
      <trkpt lat="43.47133" lon="6.14513">
        <ele>141.6</ele>
        <time>2024-11-04T13:25:29Z</time>
      </trkpt>
      <trkpt lat="43.47126" lon="6.14522">
        <ele>141.2</ele>
        <time>2024-11-04T13:27:32Z</time>
      </trkpt>
      <trkpt lat="43.47117" lon="6.14527">
        <ele>140.9</ele>
        <time>2024-11-04T13:27:43Z</time>
      </trkpt>
      <trkpt lat="43.47108" lon="6.14532">
        <ele>141.6</ele>
        <time>2024-11-04T13:27:53Z</time>
      </trkpt>
      <trkpt lat="43.47099" lon="6.14537">
        <ele>142.2</ele>
        <time>2024-11-04T13:28:02Z</time>
      </trkpt>
      <trkpt lat="43.4709" lon="6.14541">
        <ele>141.6</ele>
        <time>2024-11-04T13:28:12Z</time>
      </trkpt>
      <trkpt lat="43.47081" lon="6.14544">
        <ele>141.3</ele>
        <time>2024-11-04T13:28:21Z</time>
      </trkpt>
      <trkpt lat="43.47072" lon="6.14546">
        <ele>141.1</ele>
        <time>2024-11-04T13:28:30Z</time>
      </trkpt>
      <trkpt lat="43.47063" lon="6.14549">
        <ele>140.9</ele>
        <time>2024-11-04T13:28:40Z</time>
      </trkpt>
      <trkpt lat="43.47053" lon="6.14552">
        <ele>140.7</ele>
        <time>2024-11-04T13:28:49Z</time>
      </trkpt>
      <trkpt lat="43.47044" lon="6.14554">
        <ele>140.3</ele>
        <time>2024-11-04T13:28:58Z</time>
      </trkpt>
      <trkpt lat="43.47034" lon="6.14554">
        <ele>139.5</ele>
        <time>2024-11-04T13:29:09Z</time>
      </trkpt>
      <trkpt lat="43.47028" lon="6.14563">
        <ele>140.2</ele>
        <time>2024-11-04T13:30:51Z</time>
      </trkpt>
      <trkpt lat="43.47019" lon="6.14564">
        <ele>140</ele>
        <time>2024-11-04T13:31:31Z</time>
      </trkpt>
      <trkpt lat="43.4701" lon="6.14566">
        <ele>140.1</ele>
        <time>2024-11-04T13:31:39Z</time>
      </trkpt>
      <trkpt lat="43.47" lon="6.14569">
        <ele>139.8</ele>
        <time>2024-11-04T13:31:48Z</time>
      </trkpt>
      <trkpt lat="43.46991" lon="6.14572">
        <ele>139.5</ele>
        <time>2024-11-04T13:31:57Z</time>
      </trkpt>
      <trkpt lat="43.46981" lon="6.14571">
        <ele>139</ele>
        <time>2024-11-04T13:32:07Z</time>
      </trkpt>
      <trkpt lat="43.46991" lon="6.14574">
        <ele>138.9</ele>
        <time>2024-11-04T13:32:23Z</time>
      </trkpt>
      <trkpt lat="43.47" lon="6.1457">
        <ele>139.2</ele>
        <time>2024-11-04T13:32:32Z</time>
      </trkpt>
      <trkpt lat="43.47009" lon="6.14566">
        <ele>139.6</ele>
        <time>2024-11-04T13:32:41Z</time>
      </trkpt>
      <trkpt lat="43.47019" lon="6.14563">
        <ele>139.7</ele>
        <time>2024-11-04T13:32:50Z</time>
      </trkpt>
      <trkpt lat="43.47028" lon="6.14559">
        <ele>139.9</ele>
        <time>2024-11-04T13:33:01Z</time>
      </trkpt>
      <trkpt lat="43.47031" lon="6.14547">
        <ele>139.9</ele>
        <time>2024-11-04T13:34:07Z</time>
      </trkpt>
      <trkpt lat="43.47034" lon="6.14535">
        <ele>139.7</ele>
        <time>2024-11-04T13:34:31Z</time>
      </trkpt>
      <trkpt lat="43.47037" lon="6.14523">
        <ele>139.8</ele>
        <time>2024-11-04T13:34:42Z</time>
      </trkpt>
      <trkpt lat="43.4704" lon="6.14511">
        <ele>139.6</ele>
        <time>2024-11-04T13:34:55Z</time>
      </trkpt>
      <trkpt lat="43.47043" lon="6.14498">
        <ele>139.6</ele>
        <time>2024-11-04T13:35:04Z</time>
      </trkpt>
      <trkpt lat="43.47047" lon="6.14486">
        <ele>139.6</ele>
        <time>2024-11-04T13:35:14Z</time>
      </trkpt>
      <trkpt lat="43.4705" lon="6.14474">
        <ele>139.7</ele>
        <time>2024-11-04T13:35:24Z</time>
      </trkpt>
      <trkpt lat="43.47053" lon="6.14462">
        <ele>139.5</ele>
        <time>2024-11-04T13:35:34Z</time>
      </trkpt>
      <trkpt lat="43.47055" lon="6.14449">
        <ele>139.3</ele>
        <time>2024-11-04T13:35:45Z</time>
      </trkpt>
      <trkpt lat="43.47059" lon="6.14438">
        <ele>139.5</ele>
        <time>2024-11-04T13:35:56Z</time>
      </trkpt>
      <trkpt lat="43.47062" lon="6.14426">
        <ele>139.1</ele>
        <time>2024-11-04T13:36:07Z</time>
      </trkpt>
      <trkpt lat="43.47064" lon="6.14414">
        <ele>139.1</ele>
        <time>2024-11-04T13:36:17Z</time>
      </trkpt>
      <trkpt lat="43.47063" lon="6.14401">
        <ele>139</ele>
        <time>2024-11-04T13:36:29Z</time>
      </trkpt>
      <trkpt lat="43.47054" lon="6.14394">
        <ele>139</ele>
        <time>2024-11-04T13:36:41Z</time>
      </trkpt>
      <trkpt lat="43.47045" lon="6.14389">
        <ele>139</ele>
        <time>2024-11-04T13:36:51Z</time>
      </trkpt>
      <trkpt lat="43.47037" lon="6.14385">
        <ele>139</ele>
        <time>2024-11-04T13:37:00Z</time>
      </trkpt>
      <trkpt lat="43.4703" lon="6.14375">
        <ele>139.1</ele>
        <time>2024-11-04T13:37:11Z</time>
      </trkpt>
      <trkpt lat="43.47029" lon="6.14362">
        <ele>139.5</ele>
        <time>2024-11-04T13:37:23Z</time>
      </trkpt>
      <trkpt lat="43.47029" lon="6.14349">
        <ele>139.5</ele>
        <time>2024-11-04T13:37:38Z</time>
      </trkpt>
      <trkpt lat="43.47029" lon="6.14337">
        <ele>139.3</ele>
        <time>2024-11-04T13:37:49Z</time>
      </trkpt>
      <trkpt lat="43.47029" lon="6.14324">
        <ele>139.5</ele>
        <time>2024-11-04T13:38:00Z</time>
      </trkpt>
      <trkpt lat="43.47029" lon="6.14311">
        <ele>139.9</ele>
        <time>2024-11-04T13:38:38Z</time>
      </trkpt>
      <trkpt lat="43.47029" lon="6.14299">
        <ele>140.4</ele>
        <time>2024-11-04T13:38:54Z</time>
      </trkpt>
      <trkpt lat="43.4703" lon="6.14285">
        <ele>140.5</ele>
        <time>2024-11-04T13:39:07Z</time>
      </trkpt>
      <trkpt lat="43.47032" lon="6.14272">
        <ele>140.8</ele>
        <time>2024-11-04T13:39:18Z</time>
      </trkpt>
      <trkpt lat="43.47035" lon="6.1426">
        <ele>140.6</ele>
        <time>2024-11-04T13:39:30Z</time>
      </trkpt>
      <trkpt lat="43.47037" lon="6.14247">
        <ele>140.5</ele>
        <time>2024-11-04T13:39:43Z</time>
      </trkpt>
      <trkpt lat="43.47042" lon="6.14236">
        <ele>141</ele>
        <time>2024-11-04T13:39:54Z</time>
      </trkpt>
      <trkpt lat="43.47047" lon="6.14224">
        <ele>140.8</ele>
        <time>2024-11-04T13:40:05Z</time>
      </trkpt>
      <trkpt lat="43.47052" lon="6.14213">
        <ele>140.7</ele>
        <time>2024-11-04T13:40:16Z</time>
      </trkpt>
      <trkpt lat="43.47056" lon="6.14201">
        <ele>140.9</ele>
        <time>2024-11-04T13:40:27Z</time>
      </trkpt>
      <trkpt lat="43.47061" lon="6.1419">
        <ele>140.4</ele>
        <time>2024-11-04T13:40:38Z</time>
      </trkpt>
      <trkpt lat="43.47065" lon="6.14179">
        <ele>141.5</ele>
        <time>2024-11-04T13:40:48Z</time>
      </trkpt>
      <trkpt lat="43.47068" lon="6.14166">
        <ele>141.5</ele>
        <time>2024-11-04T13:40:58Z</time>
      </trkpt>
      <trkpt lat="43.47071" lon="6.14155">
        <ele>141.4</ele>
        <time>2024-11-04T13:41:08Z</time>
      </trkpt>
      <trkpt lat="43.47075" lon="6.14142">
        <ele>141.5</ele>
        <time>2024-11-04T13:41:19Z</time>
      </trkpt>
      <trkpt lat="43.47079" lon="6.14131">
        <ele>141.5</ele>
        <time>2024-11-04T13:41:30Z</time>
      </trkpt>
      <trkpt lat="43.47084" lon="6.14119">
        <ele>141.7</ele>
        <time>2024-11-04T13:41:42Z</time>
      </trkpt>
      <trkpt lat="43.47089" lon="6.14108">
        <ele>141.7</ele>
        <time>2024-11-04T13:41:54Z</time>
      </trkpt>
      <trkpt lat="43.47093" lon="6.14097">
        <ele>141.6</ele>
        <time>2024-11-04T13:42:04Z</time>
      </trkpt>
      <trkpt lat="43.47098" lon="6.14087">
        <ele>141.5</ele>
        <time>2024-11-04T13:42:14Z</time>
      </trkpt>
      <trkpt lat="43.47102" lon="6.14074">
        <ele>141.4</ele>
        <time>2024-11-04T13:42:25Z</time>
      </trkpt>
      <trkpt lat="43.47107" lon="6.14063">
        <ele>141.4</ele>
        <time>2024-11-04T13:42:35Z</time>
      </trkpt>
      <trkpt lat="43.47112" lon="6.14052">
        <ele>141.4</ele>
        <time>2024-11-04T13:42:46Z</time>
      </trkpt>
      <trkpt lat="43.47116" lon="6.1404">
        <ele>141.4</ele>
        <time>2024-11-04T13:42:57Z</time>
      </trkpt>
      <trkpt lat="43.4712" lon="6.14029">
        <ele>141.7</ele>
        <time>2024-11-04T13:43:08Z</time>
      </trkpt>
      <trkpt lat="43.47126" lon="6.1402">
        <ele>141.9</ele>
        <time>2024-11-04T13:43:19Z</time>
      </trkpt>
      <trkpt lat="43.47133" lon="6.14011">
        <ele>142.4</ele>
        <time>2024-11-04T13:43:32Z</time>
      </trkpt>
      <trkpt lat="43.47142" lon="6.14008">
        <ele>142.7</ele>
        <time>2024-11-04T13:43:45Z</time>
      </trkpt>
      <trkpt lat="43.47151" lon="6.14006">
        <ele>142.7</ele>
        <time>2024-11-04T13:43:57Z</time>
      </trkpt>
      <trkpt lat="43.4716" lon="6.14005">
        <ele>142.8</ele>
        <time>2024-11-04T13:44:09Z</time>
      </trkpt>
      <trkpt lat="43.4717" lon="6.14003">
        <ele>142.9</ele>
        <time>2024-11-04T13:44:21Z</time>
      </trkpt>
      <trkpt lat="43.47179" lon="6.14001">
        <ele>143.2</ele>
        <time>2024-11-04T13:44:38Z</time>
      </trkpt>
      <trkpt lat="43.47189" lon="6.14001">
        <ele>143.3</ele>
        <time>2024-11-04T13:44:51Z</time>
      </trkpt>
      <trkpt lat="43.47198" lon="6.14">
        <ele>143.7</ele>
        <time>2024-11-04T13:45:04Z</time>
      </trkpt>
      <trkpt lat="43.47207" lon="6.14002">
        <ele>143.5</ele>
        <time>2024-11-04T13:45:17Z</time>
      </trkpt>
      <trkpt lat="43.47216" lon="6.14002">
        <ele>143.8</ele>
        <time>2024-11-04T13:45:30Z</time>
      </trkpt>
      <trkpt lat="43.47226" lon="6.13999">
        <ele>143.8</ele>
        <time>2024-11-04T13:45:46Z</time>
      </trkpt>
      <trkpt lat="43.47235" lon="6.13997">
        <ele>144</ele>
        <time>2024-11-04T13:45:56Z</time>
      </trkpt>
      <trkpt lat="43.47245" lon="6.13996">
        <ele>143.8</ele>
        <time>2024-11-04T13:46:09Z</time>
      </trkpt>
      <trkpt lat="43.47252" lon="6.13988">
        <ele>143.7</ele>
        <time>2024-11-04T13:46:21Z</time>
      </trkpt>
      <trkpt lat="43.4726" lon="6.13981">
        <ele>143.7</ele>
        <time>2024-11-04T13:46:31Z</time>
      </trkpt>
      <trkpt lat="43.47268" lon="6.13973">
        <ele>143.8</ele>
        <time>2024-11-04T13:46:40Z</time>
      </trkpt>
      <trkpt lat="43.47273" lon="6.13962">
        <ele>143.6</ele>
        <time>2024-11-04T13:46:50Z</time>
      </trkpt>
      <trkpt lat="43.47277" lon="6.13951">
        <ele>143.8</ele>
        <time>2024-11-04T13:47:16Z</time>
      </trkpt>
      <trkpt lat="43.47282" lon="6.13941">
        <ele>144</ele>
        <time>2024-11-04T13:47:28Z</time>
      </trkpt>
      <trkpt lat="43.47288" lon="6.1393">
        <ele>144.2</ele>
        <time>2024-11-04T13:47:40Z</time>
      </trkpt>
      <trkpt lat="43.47293" lon="6.1392">
        <ele>144.4</ele>
        <time>2024-11-04T13:47:52Z</time>
      </trkpt>
      <trkpt lat="43.47296" lon="6.13908">
        <ele>143.8</ele>
        <time>2024-11-04T13:48:05Z</time>
      </trkpt>
      <trkpt lat="43.47301" lon="6.13898">
        <ele>144.2</ele>
        <time>2024-11-04T13:48:15Z</time>
      </trkpt>
      <trkpt lat="43.47305" lon="6.13886">
        <ele>144.4</ele>
        <time>2024-11-04T13:48:26Z</time>
      </trkpt>
      <trkpt lat="43.47306" lon="6.13873">
        <ele>144.2</ele>
        <time>2024-11-04T13:48:37Z</time>
      </trkpt>
      <trkpt lat="43.47307" lon="6.13861">
        <ele>144.9</ele>
        <time>2024-11-04T13:48:49Z</time>
      </trkpt>
      <trkpt lat="43.47307" lon="6.13848">
        <ele>144.9</ele>
        <time>2024-11-04T13:48:59Z</time>
      </trkpt>
      <trkpt lat="43.47307" lon="6.13835">
        <ele>145.2</ele>
        <time>2024-11-04T13:49:10Z</time>
      </trkpt>
      <trkpt lat="43.47308" lon="6.13823">
        <ele>145.3</ele>
        <time>2024-11-04T13:49:25Z</time>
      </trkpt>
      <trkpt lat="43.47308" lon="6.1381">
        <ele>145.4</ele>
        <time>2024-11-04T13:49:37Z</time>
      </trkpt>
      <trkpt lat="43.47307" lon="6.13797">
        <ele>145.3</ele>
        <time>2024-11-04T13:49:46Z</time>
      </trkpt>
      <trkpt lat="43.47307" lon="6.13784">
        <ele>145.5</ele>
        <time>2024-11-04T13:49:57Z</time>
      </trkpt>
      <trkpt lat="43.47307" lon="6.13771">
        <ele>145.3</ele>
        <time>2024-11-04T13:50:10Z</time>
      </trkpt>
      <trkpt lat="43.47306" lon="6.13758">
        <ele>145.3</ele>
        <time>2024-11-04T13:50:19Z</time>
      </trkpt>
      <trkpt lat="43.47304" lon="6.13745">
        <ele>145.3</ele>
        <time>2024-11-04T13:50:28Z</time>
      </trkpt>
      <trkpt lat="43.47304" lon="6.13732">
        <ele>145.5</ele>
        <time>2024-11-04T13:50:40Z</time>
      </trkpt>
      <trkpt lat="43.47302" lon="6.1372">
        <ele>145.6</ele>
        <time>2024-11-04T13:50:50Z</time>
      </trkpt>
      <trkpt lat="43.47301" lon="6.13707">
        <ele>146</ele>
        <time>2024-11-04T13:51:02Z</time>
      </trkpt>
      <trkpt lat="43.473" lon="6.13694">
        <ele>145.8</ele>
        <time>2024-11-04T13:51:13Z</time>
      </trkpt>
      <trkpt lat="43.47301" lon="6.13681">
        <ele>146</ele>
        <time>2024-11-04T13:51:23Z</time>
      </trkpt>
      <trkpt lat="43.47301" lon="6.13669">
        <ele>146.1</ele>
        <time>2024-11-04T13:51:32Z</time>
      </trkpt>
      <trkpt lat="43.47302" lon="6.13655">
        <ele>146.2</ele>
        <time>2024-11-04T13:51:43Z</time>
      </trkpt>
      <trkpt lat="43.47302" lon="6.13643">
        <ele>146</ele>
        <time>2024-11-04T13:51:53Z</time>
      </trkpt>
      <trkpt lat="43.47303" lon="6.1363">
        <ele>146.2</ele>
        <time>2024-11-04T13:52:03Z</time>
      </trkpt>
      <trkpt lat="43.47303" lon="6.13618">
        <ele>146.4</ele>
        <time>2024-11-04T13:52:13Z</time>
      </trkpt>
      <trkpt lat="43.47304" lon="6.13605">
        <ele>146.5</ele>
        <time>2024-11-04T13:52:23Z</time>
      </trkpt>
      <trkpt lat="43.47305" lon="6.13593">
        <ele>146.6</ele>
        <time>2024-11-04T13:52:33Z</time>
      </trkpt>
      <trkpt lat="43.47305" lon="6.13579">
        <ele>146.7</ele>
        <time>2024-11-04T13:52:44Z</time>
      </trkpt>
      <trkpt lat="43.47304" lon="6.13566">
        <ele>146.7</ele>
        <time>2024-11-04T13:52:54Z</time>
      </trkpt>
      <trkpt lat="43.47304" lon="6.13554">
        <ele>147</ele>
        <time>2024-11-04T13:53:05Z</time>
      </trkpt>
      <trkpt lat="43.47304" lon="6.13541">
        <ele>147</ele>
        <time>2024-11-04T13:53:16Z</time>
      </trkpt>
      <trkpt lat="43.47305" lon="6.13528">
        <ele>147.3</ele>
        <time>2024-11-04T13:53:32Z</time>
      </trkpt>
      <trkpt lat="43.47305" lon="6.13515">
        <ele>147.3</ele>
        <time>2024-11-04T13:53:43Z</time>
      </trkpt>
      <trkpt lat="43.47306" lon="6.13501">
        <ele>147.4</ele>
        <time>2024-11-04T13:53:54Z</time>
      </trkpt>
      <trkpt lat="43.47306" lon="6.13489">
        <ele>147.4</ele>
        <time>2024-11-04T13:54:03Z</time>
      </trkpt>
      <trkpt lat="43.47307" lon="6.13476">
        <ele>147.3</ele>
        <time>2024-11-04T13:54:12Z</time>
      </trkpt>
      <trkpt lat="43.47308" lon="6.13463">
        <ele>147.4</ele>
        <time>2024-11-04T13:54:23Z</time>
      </trkpt>
      <trkpt lat="43.47308" lon="6.1345">
        <ele>147.6</ele>
        <time>2024-11-04T13:54:33Z</time>
      </trkpt>
      <trkpt lat="43.47308" lon="6.13437">
        <ele>147.6</ele>
        <time>2024-11-04T13:54:43Z</time>
      </trkpt>
      <trkpt lat="43.473" lon="6.13431">
        <ele>147.7</ele>
        <time>2024-11-04T13:54:53Z</time>
      </trkpt>
      <trkpt lat="43.47291" lon="6.13428">
        <ele>147.7</ele>
        <time>2024-11-04T13:55:04Z</time>
      </trkpt>
      <trkpt lat="43.47282" lon="6.13427">
        <ele>147.8</ele>
        <time>2024-11-04T13:55:21Z</time>
      </trkpt>
      <trkpt lat="43.47273" lon="6.13424">
        <ele>148</ele>
        <time>2024-11-04T13:55:39Z</time>
      </trkpt>
      <trkpt lat="43.47264" lon="6.13421">
        <ele>147.8</ele>
        <time>2024-11-04T13:55:52Z</time>
      </trkpt>
      <trkpt lat="43.47254" lon="6.13418">
        <ele>147.8</ele>
        <time>2024-11-04T13:56:03Z</time>
      </trkpt>
      <trkpt lat="43.47264" lon="6.1342">
        <ele>148</ele>
        <time>2024-11-04T13:57:07Z</time>
      </trkpt>
      <trkpt lat="43.47273" lon="6.13423">
        <ele>147.9</ele>
        <time>2024-11-04T13:57:19Z</time>
      </trkpt>
      <trkpt lat="43.47282" lon="6.13424">
        <ele>147.8</ele>
        <time>2024-11-04T13:57:30Z</time>
      </trkpt>
      <trkpt lat="43.47291" lon="6.13425">
        <ele>147.9</ele>
        <time>2024-11-04T13:57:41Z</time>
      </trkpt>
      <trkpt lat="43.47301" lon="6.13425">
        <ele>148</ele>
        <time>2024-11-04T13:57:54Z</time>
      </trkpt>
      <trkpt lat="43.47308" lon="6.13418">
        <ele>147.7</ele>
        <time>2024-11-04T13:58:17Z</time>
      </trkpt>
      <trkpt lat="43.47308" lon="6.13405">
        <ele>147.9</ele>
        <time>2024-11-04T13:58:33Z</time>
      </trkpt>
      <trkpt lat="43.4731" lon="6.13392">
        <ele>148.1</ele>
        <time>2024-11-04T13:58:50Z</time>
      </trkpt>
      <trkpt lat="43.4731" lon="6.13379">
        <ele>147.9</ele>
        <time>2024-11-04T13:59:00Z</time>
      </trkpt>
      <trkpt lat="43.47312" lon="6.13366">
        <ele>147.6</ele>
        <time>2024-11-04T13:59:11Z</time>
      </trkpt>
      <trkpt lat="43.47314" lon="6.13352">
        <ele>147.6</ele>
        <time>2024-11-04T13:59:24Z</time>
      </trkpt>
      <trkpt lat="43.47314" lon="6.13338">
        <ele>147.8</ele>
        <time>2024-11-04T13:59:34Z</time>
      </trkpt>
      <trkpt lat="43.47313" lon="6.13326">
        <ele>148.1</ele>
        <time>2024-11-04T13:59:43Z</time>
      </trkpt>
      <trkpt lat="43.47314" lon="6.13312">
        <ele>148.1</ele>
        <time>2024-11-04T13:59:55Z</time>
      </trkpt>
      <trkpt lat="43.47315" lon="6.13299">
        <ele>147.6</ele>
        <time>2024-11-04T14:00:05Z</time>
      </trkpt>
      <trkpt lat="43.47315" lon="6.13286">
        <ele>148.2</ele>
        <time>2024-11-04T14:00:15Z</time>
      </trkpt>
      <trkpt lat="43.47315" lon="6.13273">
        <ele>148.2</ele>
        <time>2024-11-04T14:00:24Z</time>
      </trkpt>
      <trkpt lat="43.47316" lon="6.1326">
        <ele>148.3</ele>
        <time>2024-11-04T14:00:34Z</time>
      </trkpt>
      <trkpt lat="43.47316" lon="6.13247">
        <ele>148.3</ele>
        <time>2024-11-04T14:00:45Z</time>
      </trkpt>
      <trkpt lat="43.47318" lon="6.13234">
        <ele>148.3</ele>
        <time>2024-11-04T14:00:58Z</time>
      </trkpt>
      <trkpt lat="43.47319" lon="6.13221">
        <ele>148.5</ele>
        <time>2024-11-04T14:01:09Z</time>
      </trkpt>
      <trkpt lat="43.47319" lon="6.13208">
        <ele>148.6</ele>
        <time>2024-11-04T14:01:23Z</time>
      </trkpt>
      <trkpt lat="43.4731" lon="6.13205">
        <ele>148.3</ele>
        <time>2024-11-04T14:01:36Z</time>
      </trkpt>
      <trkpt lat="43.473" lon="6.13203">
        <ele>148.3</ele>
        <time>2024-11-04T14:01:51Z</time>
      </trkpt>
      <trkpt lat="43.47291" lon="6.13201">
        <ele>148</ele>
        <time>2024-11-04T14:02:01Z</time>
      </trkpt>
      <trkpt lat="43.47282" lon="6.132">
        <ele>147.7</ele>
        <time>2024-11-04T14:02:11Z</time>
      </trkpt>
      <trkpt lat="43.47273" lon="6.13201">
        <ele>147.6</ele>
        <time>2024-11-04T14:02:23Z</time>
      </trkpt>
      <trkpt lat="43.47263" lon="6.13201">
        <ele>147.5</ele>
        <time>2024-11-04T14:02:34Z</time>
      </trkpt>
      <trkpt lat="43.47254" lon="6.13201">
        <ele>147.1</ele>
        <time>2024-11-04T14:02:44Z</time>
      </trkpt>
      <trkpt lat="43.47245" lon="6.13201">
        <ele>146.8</ele>
        <time>2024-11-04T14:02:54Z</time>
      </trkpt>
      <trkpt lat="43.47236" lon="6.13203">
        <ele>146.5</ele>
        <time>2024-11-04T14:03:04Z</time>
      </trkpt>
      <trkpt lat="43.47226" lon="6.132">
        <ele>146.2</ele>
        <time>2024-11-04T14:03:25Z</time>
      </trkpt>
      <trkpt lat="43.47217" lon="6.13203">
        <ele>146.1</ele>
        <time>2024-11-04T14:03:36Z</time>
      </trkpt>
      <trkpt lat="43.47209" lon="6.13208">
        <ele>145.5</ele>
        <time>2024-11-04T14:04:56Z</time>
      </trkpt>
      <trkpt lat="43.47202" lon="6.13202">
        <ele>144.9</ele>
        <time>2024-11-04T14:06:28Z</time>
      </trkpt>
      <trkpt lat="43.47194" lon="6.13196">
        <ele>144.2</ele>
        <time>2024-11-04T14:06:45Z</time>
      </trkpt>
      <trkpt lat="43.47185" lon="6.13191">
        <ele>143.6</ele>
        <time>2024-11-04T14:06:55Z</time>
      </trkpt>
      <trkpt lat="43.47176" lon="6.13189">
        <ele>143.1</ele>
        <time>2024-11-04T14:07:05Z</time>
      </trkpt>
      <trkpt lat="43.47167" lon="6.13186">
        <ele>142.7</ele>
        <time>2024-11-04T14:07:17Z</time>
      </trkpt>
      <trkpt lat="43.47158" lon="6.13183">
        <ele>141.8</ele>
        <time>2024-11-04T14:07:26Z</time>
      </trkpt>
      <trkpt lat="43.47149" lon="6.1318">
        <ele>142.2</ele>
        <time>2024-11-04T14:07:58Z</time>
      </trkpt>
      <trkpt lat="43.4714" lon="6.13178">
        <ele>141.9</ele>
        <time>2024-11-04T14:08:07Z</time>
      </trkpt>
      <trkpt lat="43.47131" lon="6.13176">
        <ele>141.5</ele>
        <time>2024-11-04T14:08:17Z</time>
      </trkpt>
      <trkpt lat="43.47121" lon="6.13174">
        <ele>141</ele>
        <time>2024-11-04T14:08:48Z</time>
      </trkpt>
      <trkpt lat="43.47112" lon="6.13172">
        <ele>140.8</ele>
        <time>2024-11-04T14:09:11Z</time>
      </trkpt>
      <trkpt lat="43.47103" lon="6.1317">
        <ele>140.9</ele>
        <time>2024-11-04T14:09:19Z</time>
      </trkpt>
      <trkpt lat="43.47094" lon="6.13168">
        <ele>140.7</ele>
        <time>2024-11-04T14:09:30Z</time>
      </trkpt>
      <trkpt lat="43.47085" lon="6.13163">
        <ele>140.9</ele>
        <time>2024-11-04T14:09:41Z</time>
      </trkpt>
      <trkpt lat="43.47089" lon="6.13151">
        <ele>140.6</ele>
        <time>2024-11-04T14:10:19Z</time>
      </trkpt>
      <trkpt lat="43.47091" lon="6.13139">
        <ele>140.4</ele>
        <time>2024-11-04T14:10:36Z</time>
      </trkpt>
      <trkpt lat="43.47093" lon="6.13127">
        <ele>140.4</ele>
        <time>2024-11-04T14:10:46Z</time>
      </trkpt>
      <trkpt lat="43.47097" lon="6.13115">
        <ele>140.8</ele>
        <time>2024-11-04T14:10:56Z</time>
      </trkpt>
      <trkpt lat="43.471" lon="6.13103">
        <ele>140.8</ele>
        <time>2024-11-04T14:11:07Z</time>
      </trkpt>
      <trkpt lat="43.47103" lon="6.13091">
        <ele>140.8</ele>
        <time>2024-11-04T14:11:16Z</time>
      </trkpt>
      <trkpt lat="43.47107" lon="6.13078">
        <ele>140.9</ele>
        <time>2024-11-04T14:11:26Z</time>
      </trkpt>
      <trkpt lat="43.47109" lon="6.13065">
        <ele>141</ele>
        <time>2024-11-04T14:11:37Z</time>
      </trkpt>
      <trkpt lat="43.47112" lon="6.13054">
        <ele>141</ele>
        <time>2024-11-04T14:11:47Z</time>
      </trkpt>
      <trkpt lat="43.47115" lon="6.13041">
        <ele>140.9</ele>
        <time>2024-11-04T14:11:57Z</time>
      </trkpt>
      <trkpt lat="43.47118" lon="6.13028">
        <ele>140.8</ele>
        <time>2024-11-04T14:12:07Z</time>
      </trkpt>
      <trkpt lat="43.4712" lon="6.13015">
        <ele>140.8</ele>
        <time>2024-11-04T14:12:17Z</time>
      </trkpt>
      <trkpt lat="43.47123" lon="6.13003">
        <ele>140.9</ele>
        <time>2024-11-04T14:12:27Z</time>
      </trkpt>
      <trkpt lat="43.47126" lon="6.1299">
        <ele>140.8</ele>
        <time>2024-11-04T14:12:37Z</time>
      </trkpt>
      <trkpt lat="43.47128" lon="6.12977">
        <ele>140.7</ele>
        <time>2024-11-04T14:12:46Z</time>
      </trkpt>
      <trkpt lat="43.47132" lon="6.12965">
        <ele>140.8</ele>
        <time>2024-11-04T14:12:56Z</time>
      </trkpt>
      <trkpt lat="43.47135" lon="6.12953">
        <ele>140.8</ele>
        <time>2024-11-04T14:13:05Z</time>
      </trkpt>
      <trkpt lat="43.47139" lon="6.1294">
        <ele>140.9</ele>
        <time>2024-11-04T14:13:15Z</time>
      </trkpt>
      <trkpt lat="43.47143" lon="6.12927">
        <ele>141</ele>
        <time>2024-11-04T14:13:25Z</time>
      </trkpt>
      <trkpt lat="43.47147" lon="6.12916">
        <ele>141</ele>
        <time>2024-11-04T14:13:34Z</time>
      </trkpt>
      <trkpt lat="43.47151" lon="6.12905">
        <ele>141.1</ele>
        <time>2024-11-04T14:13:43Z</time>
      </trkpt>
      <trkpt lat="43.47156" lon="6.12894">
        <ele>141.1</ele>
        <time>2024-11-04T14:13:52Z</time>
      </trkpt>
      <trkpt lat="43.4716" lon="6.12882">
        <ele>141</ele>
        <time>2024-11-04T14:14:02Z</time>
      </trkpt>
      <trkpt lat="43.47164" lon="6.12871">
        <ele>141.1</ele>
        <time>2024-11-04T14:14:12Z</time>
      </trkpt>
      <trkpt lat="43.47168" lon="6.12859">
        <ele>141.1</ele>
        <time>2024-11-04T14:14:22Z</time>
      </trkpt>
      <trkpt lat="43.47173" lon="6.12848">
        <ele>141.3</ele>
        <time>2024-11-04T14:14:33Z</time>
      </trkpt>
      <trkpt lat="43.47178" lon="6.12836">
        <ele>141.3</ele>
        <time>2024-11-04T14:14:43Z</time>
      </trkpt>
      <trkpt lat="43.47182" lon="6.12824">
        <ele>141.3</ele>
        <time>2024-11-04T14:14:52Z</time>
      </trkpt>
      <trkpt lat="43.47185" lon="6.12812">
        <ele>141.3</ele>
        <time>2024-11-04T14:15:25Z</time>
      </trkpt>
      <trkpt lat="43.4719" lon="6.12801">
        <ele>141.4</ele>
        <time>2024-11-04T14:15:35Z</time>
      </trkpt>
      <trkpt lat="43.47193" lon="6.12788">
        <ele>141.5</ele>
        <time>2024-11-04T14:15:51Z</time>
      </trkpt>
      <trkpt lat="43.47196" lon="6.12775">
        <ele>141.5</ele>
        <time>2024-11-04T14:16:01Z</time>
      </trkpt>
      <trkpt lat="43.47198" lon="6.12763">
        <ele>141.7</ele>
        <time>2024-11-04T14:16:24Z</time>
      </trkpt>
      <trkpt lat="43.472" lon="6.1275">
        <ele>141.8</ele>
        <time>2024-11-04T14:16:34Z</time>
      </trkpt>
      <trkpt lat="43.47202" lon="6.12738">
        <ele>141.9</ele>
        <time>2024-11-04T14:16:46Z</time>
      </trkpt>
      <trkpt lat="43.47205" lon="6.12724">
        <ele>142</ele>
        <time>2024-11-04T14:16:56Z</time>
      </trkpt>
      <trkpt lat="43.47205" lon="6.12712">
        <ele>142.2</ele>
        <time>2024-11-04T14:17:06Z</time>
      </trkpt>
      <trkpt lat="43.472" lon="6.127">
        <ele>142.2</ele>
        <time>2024-11-04T14:17:17Z</time>
      </trkpt>
      <trkpt lat="43.47198" lon="6.12688">
        <ele>142.4</ele>
        <time>2024-11-04T14:17:32Z</time>
      </trkpt>
      <trkpt lat="43.47198" lon="6.12675">
        <ele>142.4</ele>
        <time>2024-11-04T14:17:41Z</time>
      </trkpt>
      <trkpt lat="43.47197" lon="6.12662">
        <ele>142.6</ele>
        <time>2024-11-04T14:17:50Z</time>
      </trkpt>
      <trkpt lat="43.47199" lon="6.12649">
        <ele>142.7</ele>
        <time>2024-11-04T14:17:59Z</time>
      </trkpt>
      <trkpt lat="43.47201" lon="6.12636">
        <ele>142.7</ele>
        <time>2024-11-04T14:18:08Z</time>
      </trkpt>
      <trkpt lat="43.47205" lon="6.12624">
        <ele>142.7</ele>
        <time>2024-11-04T14:18:17Z</time>
      </trkpt>
      <trkpt lat="43.4721" lon="6.12614">
        <ele>142.9</ele>
        <time>2024-11-04T14:18:26Z</time>
      </trkpt>
      <trkpt lat="43.47216" lon="6.12604">
        <ele>143</ele>
        <time>2024-11-04T14:18:34Z</time>
      </trkpt>
      <trkpt lat="43.47223" lon="6.12594">
        <ele>143.1</ele>
        <time>2024-11-04T14:18:43Z</time>
      </trkpt>
      <trkpt lat="43.47228" lon="6.12583">
        <ele>143</ele>
        <time>2024-11-04T14:18:52Z</time>
      </trkpt>
      <trkpt lat="43.47233" lon="6.12572">
        <ele>143.1</ele>
        <time>2024-11-04T14:19:01Z</time>
      </trkpt>
      <trkpt lat="43.47238" lon="6.1256">
        <ele>143.5</ele>
        <time>2024-11-04T14:19:18Z</time>
      </trkpt>
      <trkpt lat="43.47241" lon="6.12548">
        <ele>143.6</ele>
        <time>2024-11-04T14:19:27Z</time>
      </trkpt>
      <trkpt lat="43.4724" lon="6.12535">
        <ele>143.6</ele>
        <time>2024-11-04T14:19:36Z</time>
      </trkpt>
      <trkpt lat="43.47242" lon="6.12522">
        <ele>143.6</ele>
        <time>2024-11-04T14:19:46Z</time>
      </trkpt>
      <trkpt lat="43.47241" lon="6.12509">
        <ele>143.5</ele>
        <time>2024-11-04T14:19:56Z</time>
      </trkpt>
      <trkpt lat="43.47237" lon="6.12497">
        <ele>143.5</ele>
        <time>2024-11-04T14:20:06Z</time>
      </trkpt>
      <trkpt lat="43.47237" lon="6.12485">
        <ele>143.6</ele>
        <time>2024-11-04T14:20:14Z</time>
      </trkpt>
      <trkpt lat="43.47237" lon="6.12472">
        <ele>143.5</ele>
        <time>2024-11-04T14:20:22Z</time>
      </trkpt>
      <trkpt lat="43.47237" lon="6.12459">
        <ele>143.5</ele>
        <time>2024-11-04T14:20:31Z</time>
      </trkpt>
      <trkpt lat="43.47237" lon="6.12446">
        <ele>143.6</ele>
        <time>2024-11-04T14:20:39Z</time>
      </trkpt>
      <trkpt lat="43.47237" lon="6.12433">
        <ele>143.7</ele>
        <time>2024-11-04T14:20:49Z</time>
      </trkpt>
      <trkpt lat="43.47238" lon="6.1242">
        <ele>143.8</ele>
        <time>2024-11-04T14:20:58Z</time>
      </trkpt>
      <trkpt lat="43.47237" lon="6.12407">
        <ele>143.9</ele>
        <time>2024-11-04T14:21:06Z</time>
      </trkpt>
      <trkpt lat="43.47238" lon="6.12394">
        <ele>144.1</ele>
        <time>2024-11-04T14:21:15Z</time>
      </trkpt>
      <trkpt lat="43.47237" lon="6.12381">
        <ele>144.2</ele>
        <time>2024-11-04T14:21:24Z</time>
      </trkpt>
      <trkpt lat="43.47228" lon="6.12377">
        <ele>144.3</ele>
        <time>2024-11-04T14:21:36Z</time>
      </trkpt>
      <trkpt lat="43.47223" lon="6.12365">
        <ele>144.2</ele>
        <time>2024-11-04T14:21:46Z</time>
      </trkpt>
      <trkpt lat="43.47219" lon="6.12353">
        <ele>144.2</ele>
        <time>2024-11-04T14:21:57Z</time>
      </trkpt>
      <trkpt lat="43.4722" lon="6.1234">
        <ele>144.2</ele>
        <time>2024-11-04T14:22:08Z</time>
      </trkpt>
      <trkpt lat="43.47218" lon="6.12328">
        <ele>144.3</ele>
        <time>2024-11-04T14:22:19Z</time>
      </trkpt>
      <trkpt lat="43.47221" lon="6.12322">
        <ele>144.7</ele>
        <time>2024-11-04T14:25:28Z</time>
      </trkpt>
    </trkseg>
  </trk>
</gpx>